Wetterdaten: Donnerstag, 18.12.2025
Datum Zeit Temp. Aussen Temp. o. S. Temp +5cm Feuchte Auss Luftdruck Regen Sonnenschein Regendauer Solar Windböen Empfang
18.12.2025 00:00 8,4 °C 7,2 °C 3,3 °C 90 % 1019,4 hPa 0,0 l/m² 0 min 0 min 0 W/m² 12,9 km/h (3 Bft) 98,31 %
18.12.2025 00:02 8,4 °C 7,2 °C 3,3 °C 90 % 1019,4 hPa 0,0 l/m² 0 min 0 min 0 W/m² 12,9 km/h (3 Bft) 97,50 %
18.12.2025 00:04 8,3 °C 7,2 °C 3,3 °C 91 % 1019,4 hPa 0,0 l/m² 0 min 0 min 0 W/m² 9,7 km/h (2 Bft) 94,34 %
18.12.2025 00:07 8,3 °C 7,2 °C 3,3 °C 91 % 1019,3 hPa 0,0 l/m² 0 min 0 min 0 W/m² 6,4 km/h (2 Bft) 96,97 %
18.12.2025 00:08 8,3 °C 7,2 °C 3,3 °C 91 % 1019,3 hPa 0,0 l/m² 0 min 0 min 0 W/m² 6,4 km/h (2 Bft) 100,00 %
18.12.2025 00:12 8,2 °C 7,2 °C 3,3 °C 91 % 1019,3 hPa 0,0 l/m² 0 min 0 min 0 W/m² 6,4 km/h (2 Bft) 96,30 %
18.12.2025 00:14 8,2 °C 7,2 °C 3,3 °C 91 % 1019,3 hPa 0,0 l/m² 0 min 0 min 0 W/m² 6,4 km/h (2 Bft) 97,73 %
18.12.2025 00:16 8,2 °C 7,2 °C 3,3 °C 91 % 1019,3 hPa 0,0 l/m² 0 min 0 min 0 W/m² 6,4 km/h (2 Bft) 97,67 %
18.12.2025 00:18 8,2 °C 7,2 °C 3,3 °C 91 % 1019,3 hPa 0,0 l/m² 0 min 0 min 0 W/m² 3,2 km/h (1 Bft) 97,56 %
18.12.2025 00:20 8,2 °C 7,2 °C 3,3 °C 92 % 1019,3 hPa 0,0 l/m² 0 min 0 min 0 W/m² 3,2 km/h (1 Bft) 96,55 %
18.12.2025 00:22 8,1 °C 7,2 °C 3,3 °C 92 % 1019,3 hPa 0,0 l/m² 0 min 0 min 0 W/m² 3,2 km/h (1 Bft) 95,65 %
18.12.2025 00:24 8,1 °C 7,2 °C 3,3 °C 92 % 1019,3 hPa 0,0 l/m² 0 min 0 min 0 W/m² 3,2 km/h (1 Bft) 97,73 %
18.12.2025 00:26 8,1 °C 7,2 °C 3,3 °C 92 % 1019,4 hPa 0,0 l/m² 0 min 0 min 0 W/m² 0,0 km/h (0 Bft) 97,44 %
18.12.2025 00:28 8,1 °C 7,2 °C 3,3 °C 92 % 1019,4 hPa 0,0 l/m² 0 min 0 min 0 W/m² 19,3 km/h (3 Bft) 97,87 %
18.12.2025 00:30 8,1 °C 7,2 °C 3,3 °C 92 % 1019,4 hPa 0,0 l/m² 0 min 0 min 0 W/m² 6,4 km/h (2 Bft) 94,74 %
18.12.2025 00:32 8,1 °C 7,2 °C 3,3 °C 92 % 1019,4 hPa 0,0 l/m² 0 min 0 min 0 W/m² 3,2 km/h (1 Bft) 97,78 %
18.12.2025 00:34 8,1 °C 7,2 °C 3,3 °C 92 % 1019,4 hPa 0,0 l/m² 0 min 0 min 0 W/m² 3,2 km/h (1 Bft) 97,37 %
18.12.2025 00:36 8,1 °C 7,2 °C 3,3 °C 92 % 1019,3 hPa 0,0 l/m² 0 min 0 min 0 W/m² 6,4 km/h (2 Bft) 97,87 %
18.12.2025 00:38 8,1 °C 7,2 °C 3,9 °C 92 % 1019,4 hPa 0,0 l/m² 0 min 0 min 0 W/m² 6,4 km/h (2 Bft) 98,31 %
18.12.2025 00:40 8,1 °C 7,2 °C 3,9 °C 92 % 1019,4 hPa 0,0 l/m² 0 min 0 min 0 W/m² 6,4 km/h (2 Bft) 97,73 %
18.12.2025 00:42 8,1 °C 7,2 °C 3,9 °C 92 % 1019,3 hPa 0,0 l/m² 0 min 0 min 0 W/m² 6,4 km/h (2 Bft) 63,64 %
18.12.2025 00:44 8,1 °C 7,2 °C 3,9 °C 93 % 1019,3 hPa 0,0 l/m² 0 min 0 min 0 W/m² 6,4 km/h (2 Bft) 73,68 %
18.12.2025 00:46 8,1 °C 7,2 °C 3,9 °C 93 % 1019,2 hPa 0,0 l/m² 0 min 0 min 0 W/m² 6,4 km/h (2 Bft) 100,00 %
18.12.2025 00:48 8,1 °C 7,2 °C 3,9 °C 93 % 1019,2 hPa 0,0 l/m² 0 min 0 min 0 W/m² 3,2 km/h (1 Bft) 100,00 %
18.12.2025 00:50 8,1 °C 7,2 °C 3,9 °C 93 % 1019,2 hPa 0,0 l/m² 0 min 0 min 0 W/m² 6,4 km/h (2 Bft) 100,00 %
18.12.2025 00:52 8,1 °C 7,2 °C 3,9 °C 93 % 1019,2 hPa 0,0 l/m² 0 min 0 min 0 W/m² 6,4 km/h (2 Bft) 100,00 %
18.12.2025 00:54 8,1 °C 7,2 °C 3,9 °C 93 % 1019,2 hPa 0,0 l/m² 0 min 0 min 0 W/m² 6,4 km/h (2 Bft) 100,00 %
18.12.2025 00:56 8,1 °C 7,2 °C 3,9 °C 93 % 1019,2 hPa 0,0 l/m² 0 min 0 min 0 W/m² 6,4 km/h (2 Bft) 97,37 %
18.12.2025 00:58 8,1 °C 7,2 °C 3,9 °C 93 % 1019,2 hPa 0,0 l/m² 0 min 0 min 0 W/m² 6,4 km/h (2 Bft) 100,00 %
18.12.2025 01:00 8,1 °C 7,2 °C 3,9 °C 93 % 1019,3 hPa 0,0 l/m² 0 min 0 min 0 W/m² 6,4 km/h (2 Bft) 98,31 %
18.12.2025 01:02 8,1 °C 7,8 °C 3,9 °C 93 % 1019,3 hPa 0,0 l/m² 0 min 0 min 0 W/m² 9,7 km/h (2 Bft) 100,00 %
18.12.2025 01:04 8,1 °C 7,8 °C 3,9 °C 93 % 1019,3 hPa 0,0 l/m² 0 min 0 min 0 W/m² 3,2 km/h (1 Bft) 100,00 %
18.12.2025 01:06 8,1 °C 7,8 °C 3,9 °C 93 % 1019,3 hPa 0,0 l/m² 0 min 0 min 0 W/m² 3,2 km/h (1 Bft) 98,28 %
18.12.2025 01:08 8,1 °C 7,8 °C 3,9 °C 93 % 1019,2 hPa 0,0 l/m² 0 min 0 min 0 W/m² 9,7 km/h (2 Bft) 100,00 %
18.12.2025 01:10 8,1 °C 7,8 °C 3,9 °C 93 % 1019,3 hPa 0,0 l/m² 0 min 0 min 0 W/m² 3,2 km/h (1 Bft) 97,87 %
18.12.2025 01:12 8,1 °C 7,8 °C 3,9 °C 93 % 1019,3 hPa 0,0 l/m² 0 min 0 min 0 W/m² 6,4 km/h (2 Bft) 96,30 %
18.12.2025 01:14 8,1 °C 7,8 °C 3,9 °C 93 % 1019,3 hPa 0,0 l/m² 0 min 0 min 0 W/m² 6,4 km/h (2 Bft) 95,00 %
18.12.2025 01:16 8,1 °C 7,8 °C 3,9 °C 93 % 1019,3 hPa 0,0 l/m² 0 min 0 min 0 W/m² 6,4 km/h (2 Bft) 97,87 %
18.12.2025 01:18 8,1 °C 7,8 °C 3,9 °C 93 % 1019,3 hPa 0,0 l/m² 0 min 0 min 0 W/m² 12,9 km/h (3 Bft) 98,21 %
18.12.2025 01:20 8,1 °C 7,8 °C 3,9 °C 93 % 1019,3 hPa 0,0 l/m² 0 min 0 min 0 W/m² 12,9 km/h (3 Bft) 97,30 %
18.12.2025 01:22 8,1 °C 7,8 °C 3,9 °C 93 % 1019,3 hPa 0,0 l/m² 0 min 0 min 0 W/m² 6,4 km/h (2 Bft) 97,87 %
18.12.2025 01:24 8,2 °C 7,8 °C 3,9 °C 93 % 1019,2 hPa 0,0 l/m² 0 min 0 min 0 W/m² 6,4 km/h (2 Bft) 95,74 %
18.12.2025 01:26 8,2 °C 7,8 °C 4,4 °C 93 % 1019,3 hPa 0,0 l/m² 0 min 0 min 0 W/m² 9,7 km/h (2 Bft) 98,15 %
18.12.2025 01:28 8,2 °C 7,8 °C 4,4 °C 93 % 1019,2 hPa 0,0 l/m² 0 min 0 min 0 W/m² 9,7 km/h (2 Bft) 95,65 %
18.12.2025 01:30 8,2 °C 7,8 °C 4,4 °C 93 % 1019,2 hPa 0,0 l/m² 0 min 0 min 0 W/m² 9,7 km/h (2 Bft) 95,12 %
18.12.2025 01:32 8,2 °C 7,8 °C 4,4 °C 93 % 1019,2 hPa 0,0 l/m² 0 min 0 min 0 W/m² 6,4 km/h (2 Bft) 95,65 %
18.12.2025 01:34 8,2 °C 7,8 °C 4,4 °C 93 % 1019,2 hPa 0,0 l/m² 0 min 0 min 0 W/m² 16,1 km/h (3 Bft) 96,15 %
18.12.2025 01:36 8,2 °C 7,8 °C 4,4 °C 93 % 1019,1 hPa 0,0 l/m² 0 min 0 min 0 W/m² 3,2 km/h (1 Bft) 91,49 %
18.12.2025 01:38 8,2 °C 7,8 °C 4,4 °C 93 % 1019,1 hPa 0,0 l/m² 0 min 0 min 0 W/m² 12,9 km/h (3 Bft) 95,45 %
18.12.2025 01:40 8,3 °C 7,8 °C 4,4 °C 93 % 1019,0 hPa 0,0 l/m² 0 min 0 min 0 W/m² 12,9 km/h (3 Bft) 94,00 %
18.12.2025 01:42 8,3 °C 7,8 °C 4,4 °C 93 % 1019,1 hPa 0,0 l/m² 0 min 0 min 0 W/m² 3,2 km/h (1 Bft) 95,65 %
18.12.2025 01:44 8,3 °C 7,8 °C 4,4 °C 93 % 1019,1 hPa 0,0 l/m² 0 min 0 min 0 W/m² 3,2 km/h (1 Bft) 95,56 %
18.12.2025 01:46 8,3 °C 7,8 °C 3,9 °C 93 % 1019,1 hPa 0,0 l/m² 0 min 0 min 0 W/m² 6,4 km/h (2 Bft) 97,96 %
18.12.2025 01:48 8,3 °C 7,8 °C 3,9 °C 93 % 1019,1 hPa 0,0 l/m² 0 min 0 min 0 W/m² 0,0 km/h (0 Bft) 95,74 %
18.12.2025 01:50 8,3 °C 7,8 °C 3,9 °C 93 % 1019,1 hPa 0,0 l/m² 0 min 0 min 0 W/m² 3,2 km/h (1 Bft) 100,00 %
18.12.2025 01:52 8,3 °C 7,8 °C 3,9 °C 92 % 1019,1 hPa 0,0 l/m² 0 min 0 min 0 W/m² 6,4 km/h (2 Bft) 98,08 %
18.12.2025 01:54 8,3 °C 7,8 °C 3,9 °C 92 % 1019,1 hPa 0,0 l/m² 0 min 0 min 0 W/m² 12,9 km/h (3 Bft) 100,00 %
18.12.2025 01:59 8,3 °C 7,8 °C 4,4 °C 92 % 1019,1 hPa 0,0 l/m² 0 min 0 min 0 W/m² 16,1 km/h (3 Bft) 95,00 %
18.12.2025 02:02 8,4 °C 7,8 °C 4,4 °C 92 % 1019,0 hPa 0,0 l/m² 0 min 0 min 0 W/m² 6,4 km/h (2 Bft) 94,20 %
18.12.2025 02:04 8,4 °C 7,8 °C 4,4 °C 92 % 1019,1 hPa 0,0 l/m² 0 min 0 min 0 W/m² 6,4 km/h (2 Bft) 94,87 %
18.12.2025 02:06 8,4 °C 7,8 °C 3,9 °C 92 % 1019,1 hPa 0,0 l/m² 0 min 0 min 0 W/m² 6,4 km/h (2 Bft) 96,49 %
18.12.2025 02:08 8,4 °C 7,8 °C 3,9 °C 92 % 1019,0 hPa 0,0 l/m² 0 min 0 min 0 W/m² 3,2 km/h (1 Bft) 94,44 %
18.12.2025 02:10 8,4 °C 7,8 °C 3,9 °C 92 % 1019,1 hPa 0,0 l/m² 0 min 0 min 0 W/m² 3,2 km/h (1 Bft) 98,31 %
18.12.2025 02:17 8,4 °C 7,2 °C 3,9 °C 92 % 1019,0 hPa 0,0 l/m² 0 min 0 min 0 W/m² 6,4 km/h (2 Bft) 97,01 %
18.12.2025 02:18 8,3 °C 7,2 °C 3,9 °C 92 % 1019,1 hPa 0,0 l/m² 0 min 0 min 0 W/m² 6,4 km/h (2 Bft) 97,01 %
18.12.2025 02:22 8,3 °C 7,2 °C 3,9 °C 91 % 1019,1 hPa 0,0 l/m² 0 min 0 min 0 W/m² 12,9 km/h (3 Bft) 87,50 %
18.12.2025 02:24 8,3 °C 7,2 °C 3,3 °C 91 % 1019,1 hPa 0,0 l/m² 0 min 0 min 0 W/m² 6,4 km/h (2 Bft) 95,65 %
18.12.2025 02:26 8,3 °C 7,2 °C 3,3 °C 91 % 1019,0 hPa 0,0 l/m² 0 min 0 min 0 W/m² 6,4 km/h (2 Bft) 100,00 %
18.12.2025 02:28 8,3 °C 7,2 °C 3,3 °C 91 % 1019,0 hPa 0,0 l/m² 0 min 0 min 0 W/m² 6,4 km/h (2 Bft) 97,62 %
18.12.2025 02:30 8,3 °C 6,7 °C 3,3 °C 91 % 1019,0 hPa 0,0 l/m² 0 min 0 min 0 W/m² 6,4 km/h (2 Bft) 96,15 %
18.12.2025 02:32 8,2 °C 6,7 °C 3,3 °C 91 % 1019,1 hPa 0,0 l/m² 0 min 0 min 0 W/m² 6,4 km/h (2 Bft) 97,87 %
18.12.2025 02:34 8,2 °C 6,7 °C 3,3 °C 91 % 1019,1 hPa 0,0 l/m² 0 min 0 min 0 W/m² 6,4 km/h (2 Bft) 98,11 %
18.12.2025 02:36 8,1 °C 6,7 °C 3,3 °C 91 % 1019,2 hPa 0,0 l/m² 0 min 0 min 0 W/m² 6,4 km/h (2 Bft) 97,37 %
18.12.2025 02:38 8,1 °C 6,7 °C 3,3 °C 91 % 1019,2 hPa 0,0 l/m² 0 min 0 min 0 W/m² 9,7 km/h (2 Bft) 97,92 %
18.12.2025 02:40 8,1 °C 6,7 °C 3,3 °C 91 % 1019,2 hPa 0,0 l/m² 0 min 0 min 0 W/m² 6,4 km/h (2 Bft) 97,92 %
18.12.2025 02:42 8,1 °C 6,7 °C 3,3 °C 91 % 1019,2 hPa 0,0 l/m² 0 min 0 min 0 W/m² 3,2 km/h (1 Bft) 97,87 %
18.12.2025 02:44 8,0 °C 6,7 °C 3,3 °C 91 % 1019,2 hPa 0,0 l/m² 0 min 0 min 0 W/m² 9,7 km/h (2 Bft) 97,67 %
18.12.2025 02:46 8,0 °C 6,7 °C 3,3 °C 91 % 1019,2 hPa 0,0 l/m² 0 min 0 min 0 W/m² 6,4 km/h (2 Bft) 97,96 %
18.12.2025 02:48 7,9 °C 6,7 °C 3,3 °C 91 % 1019,1 hPa 0,0 l/m² 0 min 0 min 0 W/m² 9,7 km/h (2 Bft) 97,92 %
18.12.2025 02:50 7,9 °C 6,7 °C 3,3 °C 91 % 1019,1 hPa 0,0 l/m² 0 min 0 min 0 W/m² 6,4 km/h (2 Bft) 97,87 %
18.12.2025 02:52 7,9 °C 6,7 °C 3,3 °C 91 % 1019,3 hPa 0,0 l/m² 0 min 0 min 0 W/m² 6,4 km/h (2 Bft) 97,67 %
18.12.2025 02:54 7,9 °C 6,7 °C 3,3 °C 91 % 1019,2 hPa 0,0 l/m² 0 min 0 min 0 W/m² 6,4 km/h (2 Bft) 97,96 %
18.12.2025 02:56 7,8 °C 6,7 °C 3,3 °C 91 % 1019,3 hPa 0,0 l/m² 0 min 0 min 0 W/m² 6,4 km/h (2 Bft) 95,92 %
18.12.2025 02:58 7,8 °C 6,7 °C 3,3 °C 91 % 1019,2 hPa 0,0 l/m² 0 min 0 min 0 W/m² 16,1 km/h (3 Bft) 97,87 %
18.12.2025 03:00 7,8 °C 6,7 °C 3,3 °C 91 % 1019,2 hPa 0,0 l/m² 0 min 0 min 0 W/m² 12,9 km/h (3 Bft) 93,18 %
18.12.2025 03:02 7,8 °C 6,7 °C 3,3 °C 91 % 1019,1 hPa 0,0 l/m² 0 min 0 min 0 W/m² 9,7 km/h (2 Bft) 95,92 %
18.12.2025 03:04 7,7 °C 6,7 °C 2,8 °C 91 % 1019,0 hPa 0,0 l/m² 0 min 0 min 0 W/m² 6,4 km/h (2 Bft) 95,92 %
18.12.2025 03:08 7,6 °C 6,1 °C 2,8 °C 91 % 1019,0 hPa 0,0 l/m² 0 min 0 min 0 W/m² 12,9 km/h (3 Bft) 96,59 %
18.12.2025 03:10 7,6 °C 6,1 °C 2,8 °C 91 % 1019,1 hPa 0,0 l/m² 0 min 0 min 0 W/m² 12,9 km/h (3 Bft) 98,00 %
18.12.2025 03:12 7,6 °C 6,1 °C 2,8 °C 91 % 1019,1 hPa 0,0 l/m² 0 min 0 min 0 W/m² 6,4 km/h (2 Bft) 97,92 %
18.12.2025 03:14 7,5 °C 6,1 °C 2,8 °C 91 % 1019,0 hPa 0,0 l/m² 0 min 0 min 0 W/m² 9,7 km/h (2 Bft) 97,92 %
18.12.2025 03:16 7,4 °C 6,1 °C 2,8 °C 91 % 1019,0 hPa 0,0 l/m² 0 min 0 min 0 W/m² 6,4 km/h (2 Bft) 95,12 %
18.12.2025 03:18 7,4 °C 6,1 °C 2,8 °C 91 % 1019,0 hPa 0,0 l/m² 0 min 0 min 0 W/m² 6,4 km/h (2 Bft) 98,00 %
18.12.2025 03:20 7,4 °C 6,1 °C 2,8 °C 92 % 1019,0 hPa 0,0 l/m² 0 min 0 min 0 W/m² 12,9 km/h (3 Bft) 95,92 %
18.12.2025 03:22 7,3 °C 6,1 °C 2,8 °C 92 % 1019,0 hPa 0,0 l/m² 0 min 0 min 0 W/m² 12,9 km/h (3 Bft) 97,87 %
18.12.2025 03:24 7,3 °C 6,1 °C 2,8 °C 92 % 1019,0 hPa 0,0 l/m² 0 min 0 min 0 W/m² 9,7 km/h (2 Bft) 100,00 %
18.12.2025 03:26 7,2 °C 6,1 °C 2,8 °C 92 % 1018,9 hPa 0,0 l/m² 0 min 0 min 0 W/m² 16,1 km/h (3 Bft) 95,92 %
18.12.2025 03:28 7,2 °C 5,6 °C 2,8 °C 92 % 1019,0 hPa 0,0 l/m² 0 min 0 min 0 W/m² 6,4 km/h (2 Bft) 98,00 %
18.12.2025 03:30 7,2 °C 5,6 °C 2,2 °C 92 % 1018,9 hPa 0,0 l/m² 0 min 0 min 0 W/m² 9,7 km/h (2 Bft) 100,00 %
18.12.2025 03:32 7,1 °C 5,6 °C 2,2 °C 92 % 1018,9 hPa 0,0 l/m² 0 min 0 min 0 W/m² 6,4 km/h (2 Bft) 94,64 %
18.12.2025 03:34 7,1 °C 5,6 °C 2,2 °C 92 % 1018,9 hPa 0,0 l/m² 0 min 0 min 0 W/m² 6,4 km/h (2 Bft) 100,00 %
18.12.2025 03:36 7,1 °C 5,6 °C 2,2 °C 92 % 1018,8 hPa 0,0 l/m² 0 min 0 min 0 W/m² 6,4 km/h (2 Bft) 100,00 %
18.12.2025 03:38 7,0 °C 5,6 °C 2,2 °C 92 % 1018,8 hPa 0,0 l/m² 0 min 0 min 0 W/m² 6,4 km/h (2 Bft) 100,00 %
18.12.2025 03:40 7,0 °C 5,6 °C 2,2 °C 92 % 1018,7 hPa 0,0 l/m² 0 min 0 min 0 W/m² 12,9 km/h (3 Bft) 100,00 %
18.12.2025 03:42 6,9 °C 5,6 °C 2,2 °C 92 % 1018,7 hPa 0,0 l/m² 0 min 0 min 0 W/m² 16,1 km/h (3 Bft) 100,00 %
18.12.2025 03:44 6,9 °C 5,6 °C 2,2 °C 92 % 1018,6 hPa 0,0 l/m² 0 min 0 min 0 W/m² 9,7 km/h (2 Bft) 95,12 %
18.12.2025 03:46 6,8 °C 5,6 °C 2,2 °C 92 % 1018,7 hPa 0,0 l/m² 0 min 0 min 0 W/m² 12,9 km/h (3 Bft) 97,96 %
18.12.2025 03:48 6,8 °C 5,6 °C 2,2 °C 92 % 1018,7 hPa 0,0 l/m² 0 min 0 min 0 W/m² 16,1 km/h (3 Bft) 100,00 %
18.12.2025 03:50 6,8 °C 5,6 °C 2,2 °C 93 % 1018,6 hPa 0,0 l/m² 0 min 0 min 0 W/m² 12,9 km/h (3 Bft) 100,00 %
18.12.2025 03:52 6,7 °C 5,6 °C 2,2 °C 93 % 1018,6 hPa 0,0 l/m² 0 min 0 min 0 W/m² 9,7 km/h (2 Bft) 100,00 %
18.12.2025 03:54 6,7 °C 5,6 °C 2,2 °C 93 % 1018,6 hPa 0,0 l/m² 0 min 0 min 0 W/m² 12,9 km/h (3 Bft) 98,00 %
18.12.2025 03:56 6,7 °C 5,6 °C 2,2 °C 93 % 1018,6 hPa 0,0 l/m² 0 min 0 min 0 W/m² 12,9 km/h (3 Bft) 97,87 %
18.12.2025 03:58 6,6 °C 5,6 °C 2,2 °C 93 % 1018,6 hPa 0,0 l/m² 0 min 0 min 0 W/m² 12,9 km/h (3 Bft) 97,73 %
18.12.2025 04:00 6,6 °C 5,6 °C 2,2 °C 93 % 1018,6 hPa 0,0 l/m² 0 min 0 min 0 W/m² 12,9 km/h (3 Bft) 96,00 %
18.12.2025 04:02 6,6 °C 5,6 °C 2,2 °C 93 % 1018,6 hPa 0,0 l/m² 0 min 0 min 0 W/m² 19,3 km/h (3 Bft) 95,74 %
18.12.2025 04:04 6,6 °C 5,6 °C 2,2 °C 93 % 1018,6 hPa 0,0 l/m² 0 min 0 min 0 W/m² 6,4 km/h (2 Bft) 97,37 %
18.12.2025 04:08 6,5 °C 5,6 °C 2,2 °C 93 % 1018,4 hPa 0,0 l/m² 0 min 0 min 0 W/m² 19,3 km/h (3 Bft) 99,02 %
18.12.2025 04:10 6,5 °C 5,6 °C 2,2 °C 93 % 1018,4 hPa 0,0 l/m² 0 min 0 min 0 W/m² 12,9 km/h (3 Bft) 100,00 %
18.12.2025 04:12 6,5 °C 5,0 °C 2,2 °C 93 % 1018,4 hPa 0,0 l/m² 0 min 0 min 0 W/m² 12,9 km/h (3 Bft) 100,00 %
18.12.2025 04:14 6,4 °C 5,0 °C 2,2 °C 93 % 1018,4 hPa 0,0 l/m² 0 min 0 min 0 W/m² 12,9 km/h (3 Bft) 100,00 %
18.12.2025 04:16 6,4 °C 5,0 °C 2,2 °C 94 % 1018,3 hPa 0,0 l/m² 0 min 0 min 0 W/m² 9,7 km/h (2 Bft) 100,00 %
18.12.2025 04:18 6,3 °C 5,0 °C 2,2 °C 94 % 1018,3 hPa 0,0 l/m² 0 min 0 min 0 W/m² 12,9 km/h (3 Bft) 100,00 %
18.12.2025 04:20 6,3 °C 5,0 °C 1,7 °C 94 % 1018,3 hPa 0,0 l/m² 0 min 0 min 0 W/m² 12,9 km/h (3 Bft) 97,56 %
18.12.2025 04:22 6,3 °C 5,0 °C 1,7 °C 94 % 1018,3 hPa 0,0 l/m² 0 min 0 min 0 W/m² 12,9 km/h (3 Bft) 100,00 %
18.12.2025 04:24 6,3 °C 5,0 °C 1,7 °C 94 % 1018,4 hPa 0,0 l/m² 0 min 0 min 0 W/m² 12,9 km/h (3 Bft) 100,00 %
18.12.2025 04:26 6,2 °C 5,0 °C 1,7 °C 94 % 1018,3 hPa 0,0 l/m² 0 min 0 min 0 W/m² 12,9 km/h (3 Bft) 94,29 %
18.12.2025 04:28 6,2 °C 5,0 °C 1,7 °C 94 % 1018,4 hPa 0,0 l/m² 0 min 0 min 0 W/m² 9,7 km/h (2 Bft) 98,28 %
18.12.2025 04:30 6,2 °C 5,0 °C 1,7 °C 94 % 1018,3 hPa 0,0 l/m² 0 min 0 min 0 W/m² 12,9 km/h (3 Bft) 100,00 %
18.12.2025 04:32 6,2 °C 5,0 °C 1,7 °C 94 % 1018,4 hPa 0,0 l/m² 0 min 0 min 0 W/m² 6,4 km/h (2 Bft) 98,11 %
18.12.2025 04:34 6,1 °C 5,0 °C 1,7 °C 94 % 1018,3 hPa 0,0 l/m² 0 min 0 min 0 W/m² 12,9 km/h (3 Bft) 94,00 %
18.12.2025 04:36 6,1 °C 5,0 °C 1,7 °C 94 % 1018,4 hPa 0,0 l/m² 0 min 0 min 0 W/m² 12,9 km/h (3 Bft) 71,43 %
18.12.2025 04:38 6,1 °C 5,0 °C 1,7 °C 94 % 1018,4 hPa 0,0 l/m² 0 min 0 min 0 W/m² 16,1 km/h (3 Bft) 81,08 %
18.12.2025 04:40 6,1 °C 5,0 °C 1,7 °C 94 % 1018,4 hPa 0,0 l/m² 0 min 0 min 0 W/m² 12,9 km/h (3 Bft) 93,88 %
18.12.2025 04:42 6,0 °C 5,0 °C 1,7 °C 94 % 1018,4 hPa 0,0 l/m² 0 min 0 min 0 W/m² 9,7 km/h (2 Bft) 96,08 %
18.12.2025 04:44 6,0 °C 5,0 °C 1,7 °C 94 % 1018,3 hPa 0,0 l/m² 0 min 0 min 0 W/m² 12,9 km/h (3 Bft) 97,14 %
18.12.2025 04:46 6,0 °C 5,0 °C 1,7 °C 94 % 1018,3 hPa 0,0 l/m² 0 min 0 min 0 W/m² 6,4 km/h (2 Bft) 96,23 %
18.12.2025 04:48 5,9 °C 5,0 °C 1,7 °C 94 % 1018,3 hPa 0,0 l/m² 0 min 0 min 0 W/m² 12,9 km/h (3 Bft) 98,04 %
18.12.2025 04:50 5,9 °C 5,0 °C 1,7 °C 94 % 1018,3 hPa 0,0 l/m² 0 min 0 min 0 W/m² 6,4 km/h (2 Bft) 97,22 %
18.12.2025 04:52 5,9 °C 5,0 °C 1,7 °C 94 % 1018,3 hPa 0,0 l/m² 0 min 0 min 0 W/m² 6,4 km/h (2 Bft) 94,64 %
18.12.2025 04:54 5,9 °C 5,0 °C 1,7 °C 94 % 1018,3 hPa 0,0 l/m² 0 min 0 min 0 W/m² 6,4 km/h (2 Bft) 94,00 %
18.12.2025 04:56 5,9 °C 4,4 °C 1,7 °C 95 % 1018,3 hPa 0,0 l/m² 0 min 0 min 0 W/m² 6,4 km/h (2 Bft) 91,43 %
18.12.2025 04:58 5,8 °C 4,4 °C 1,7 °C 95 % 1018,3 hPa 0,0 l/m² 0 min 0 min 0 W/m² 12,9 km/h (3 Bft) 94,55 %
18.12.2025 05:00 5,8 °C 4,4 °C 1,7 °C 95 % 1018,3 hPa 0,0 l/m² 0 min 0 min 0 W/m² 12,9 km/h (3 Bft) 92,00 %
18.12.2025 05:02 5,8 °C 4,4 °C 1,7 °C 95 % 1018,3 hPa 0,0 l/m² 0 min 0 min 0 W/m² 6,4 km/h (2 Bft) 91,43 %
18.12.2025 05:04 5,8 °C 4,4 °C 1,7 °C 95 % 1018,3 hPa 0,0 l/m² 0 min 0 min 0 W/m² 12,9 km/h (3 Bft) 94,64 %
18.12.2025 05:08 5,7 °C 4,4 °C 1,7 °C 95 % 1018,3 hPa 0,0 l/m² 0 min 0 min 0 W/m² 12,9 km/h (3 Bft) 92,78 %
18.12.2025 05:10 5,7 °C 4,4 °C 1,7 °C 95 % 1018,4 hPa 0,0 l/m² 0 min 0 min 0 W/m² 12,9 km/h (3 Bft) 94,44 %
18.12.2025 05:12 5,7 °C 4,4 °C 1,7 °C 95 % 1018,4 hPa 0,0 l/m² 0 min 0 min 0 W/m² 6,4 km/h (2 Bft) 91,49 %
18.12.2025 05:14 5,7 °C 4,4 °C 1,7 °C 95 % 1018,4 hPa 0,0 l/m² 0 min 0 min 0 W/m² 6,4 km/h (2 Bft) 93,62 %
18.12.2025 05:16 5,7 °C 4,4 °C 1,7 °C 95 % 1018,4 hPa 0,0 l/m² 0 min 0 min 0 W/m² 6,4 km/h (2 Bft) 92,45 %
18.12.2025 05:18 5,6 °C 4,4 °C 1,7 °C 95 % 1018,4 hPa 0,0 l/m² 0 min 0 min 0 W/m² 6,4 km/h (2 Bft) 93,88 %
18.12.2025 05:20 5,6 °C 4,4 °C 1,7 °C 95 % 1018,3 hPa 0,0 l/m² 0 min 0 min 0 W/m² 12,9 km/h (3 Bft) 93,62 %
18.12.2025 05:22 5,6 °C 4,4 °C 1,7 °C 95 % 1018,3 hPa 0,0 l/m² 0 min 0 min 0 W/m² 12,9 km/h (3 Bft) 97,96 %
18.12.2025 05:24 5,6 °C 4,4 °C 1,7 °C 95 % 1018,3 hPa 0,0 l/m² 0 min 0 min 0 W/m² 12,9 km/h (3 Bft) 97,22 %
18.12.2025 05:26 5,6 °C 4,4 °C 1,7 °C 95 % 1018,2 hPa 0,0 l/m² 0 min 0 min 0 W/m² 6,4 km/h (2 Bft) 97,87 %
18.12.2025 05:28 5,6 °C 4,4 °C 1,7 °C 95 % 1018,2 hPa 0,0 l/m² 0 min 0 min 0 W/m² 12,9 km/h (3 Bft) 98,15 %
18.12.2025 05:30 5,6 °C 4,4 °C 1,7 °C 95 % 1018,3 hPa 0,0 l/m² 0 min 0 min 0 W/m² 6,4 km/h (2 Bft) 97,96 %
18.12.2025 05:32 5,5 °C 4,4 °C 1,7 °C 95 % 1018,4 hPa 0,0 l/m² 0 min 0 min 0 W/m² 12,9 km/h (3 Bft) 97,92 %
18.12.2025 05:34 5,5 °C 4,4 °C 1,7 °C 95 % 1018,4 hPa 0,0 l/m² 0 min 0 min 0 W/m² 6,4 km/h (2 Bft) 97,22 %
18.12.2025 05:36 5,5 °C 4,4 °C 1,7 °C 95 % 1018,4 hPa 0,0 l/m² 0 min 0 min 0 W/m² 9,7 km/h (2 Bft) 97,87 %
18.12.2025 05:38 5,5 °C 4,4 °C 1,7 °C 95 % 1018,3 hPa 0,0 l/m² 0 min 0 min 0 W/m² 12,9 km/h (3 Bft) 100,00 %
18.12.2025 05:40 5,5 °C 4,4 °C 1,7 °C 95 % 1018,3 hPa 0,0 l/m² 0 min 0 min 0 W/m² 6,4 km/h (2 Bft) 100,00 %
18.12.2025 05:42 5,5 °C 4,4 °C 1,7 °C 95 % 1018,3 hPa 0,0 l/m² 0 min 0 min 0 W/m² 12,9 km/h (3 Bft) 100,00 %
18.12.2025 05:44 5,4 °C 4,4 °C 1,7 °C 95 % 1018,3 hPa 0,0 l/m² 0 min 0 min 0 W/m² 6,4 km/h (2 Bft) 100,00 %
18.12.2025 05:46 5,4 °C 4,4 °C 1,7 °C 95 % 1018,3 hPa 0,0 l/m² 0 min 0 min 0 W/m² 6,4 km/h (2 Bft) 97,87 %
18.12.2025 05:48 5,4 °C 4,4 °C 1,7 °C 95 % 1018,2 hPa 0,0 l/m² 0 min 0 min 0 W/m² 12,9 km/h (3 Bft) 100,00 %
18.12.2025 05:50 5,4 °C 4,4 °C 1,7 °C 95 % 1018,2 hPa 0,0 l/m² 0 min 0 min 0 W/m² 6,4 km/h (2 Bft) 100,00 %
18.12.2025 05:52 5,4 °C 4,4 °C 1,7 °C 95 % 1018,1 hPa 0,0 l/m² 0 min 0 min 0 W/m² 12,9 km/h (3 Bft) 98,28 %
18.12.2025 05:54 5,4 °C 4,4 °C 1,7 °C 95 % 1018,1 hPa 0,0 l/m² 0 min 0 min 0 W/m² 9,7 km/h (2 Bft) 100,00 %
18.12.2025 05:56 5,4 °C 4,4 °C 1,7 °C 95 % 1018,1 hPa 0,0 l/m² 0 min 0 min 0 W/m² 6,4 km/h (2 Bft) 98,11 %
18.12.2025 05:58 5,4 °C 4,4 °C 1,7 °C 95 % 1018,0 hPa 0,0 l/m² 0 min 0 min 0 W/m² 6,4 km/h (2 Bft) 100,00 %
18.12.2025 06:00 5,4 °C 4,4 °C 1,7 °C 96 % 1018,0 hPa 0,0 l/m² 0 min 0 min 0 W/m² 6,4 km/h (2 Bft) 100,00 %
18.12.2025 06:02 5,4 °C 4,4 °C 1,7 °C 96 % 1018,0 hPa 0,0 l/m² 0 min 0 min 0 W/m² 6,4 km/h (2 Bft) 98,18 %
18.12.2025 06:04 5,4 °C 4,4 °C 1,7 °C 96 % 1017,9 hPa 0,0 l/m² 0 min 0 min 0 W/m² 9,7 km/h (2 Bft) 100,00 %
18.12.2025 06:08 5,4 °C 5,0 °C 1,7 °C 96 % 1017,9 hPa 0,0 l/m² 0 min 0 min 0 W/m² 9,7 km/h (2 Bft) 100,00 %
18.12.2025 06:12 5,4 °C 5,0 °C 1,7 °C 96 % 1017,9 hPa 0,0 l/m² 0 min 0 min 0 W/m² 12,9 km/h (3 Bft) 100,00 %
18.12.2025 06:16 5,4 °C 5,0 °C 1,7 °C 96 % 1017,8 hPa 0,0 l/m² 0 min 0 min 0 W/m² 16,1 km/h (3 Bft) 98,82 %
18.12.2025 06:18 5,4 °C 5,0 °C 1,7 °C 96 % 1017,8 hPa 0,0 l/m² 0 min 0 min 0 W/m² 12,9 km/h (3 Bft) 100,00 %
18.12.2025 06:20 5,4 °C 5,0 °C 1,7 °C 96 % 1017,7 hPa 0,0 l/m² 0 min 0 min 0 W/m² 12,9 km/h (3 Bft) 100,00 %
18.12.2025 06:22 5,4 °C 5,0 °C 1,7 °C 96 % 1017,6 hPa 0,0 l/m² 0 min 0 min 0 W/m² 12,9 km/h (3 Bft) 100,00 %
18.12.2025 06:24 5,5 °C 5,0 °C 1,7 °C 96 % 1017,6 hPa 0,0 l/m² 0 min 0 min 0 W/m² 16,1 km/h (3 Bft) 100,00 %
18.12.2025 06:26 5,5 °C 5,0 °C 1,7 °C 96 % 1017,6 hPa 0,0 l/m² 0 min 0 min 0 W/m² 12,9 km/h (3 Bft) 100,00 %
18.12.2025 06:28 5,5 °C 5,0 °C 1,7 °C 96 % 1017,7 hPa 0,0 l/m² 0 min 0 min 0 W/m² 12,9 km/h (3 Bft) 95,56 %
18.12.2025 06:30 5,4 °C 5,0 °C 1,7 °C 96 % 1017,7 hPa 0,0 l/m² 0 min 0 min 0 W/m² 12,9 km/h (3 Bft) 97,96 %
18.12.2025 06:32 5,5 °C 5,0 °C 1,7 °C 96 % 1017,6 hPa 0,0 l/m² 0 min 0 min 0 W/m² 16,1 km/h (3 Bft) 98,11 %
18.12.2025 06:34 5,5 °C 5,0 °C 1,7 °C 96 % 1017,7 hPa 0,0 l/m² 0 min 0 min 0 W/m² 12,9 km/h (3 Bft) 100,00 %
18.12.2025 06:36 5,5 °C 5,0 °C 1,7 °C 96 % 1017,6 hPa 0,0 l/m² 0 min 0 min 0 W/m² 16,1 km/h (3 Bft) 97,87 %
18.12.2025 06:38 5,5 °C 5,0 °C 1,7 °C 96 % 1017,6 hPa 0,0 l/m² 0 min 0 min 0 W/m² 12,9 km/h (3 Bft) 100,00 %
18.12.2025 06:40 5,6 °C 5,0 °C 1,7 °C 96 % 1017,6 hPa 0,0 l/m² 0 min 0 min 0 W/m² 9,7 km/h (2 Bft) 97,37 %
18.12.2025 06:42 5,6 °C 5,0 °C 1,7 °C 96 % 1017,6 hPa 0,0 l/m² 0 min 0 min 0 W/m² 12,9 km/h (3 Bft) 97,83 %
18.12.2025 06:44 5,6 °C 5,0 °C 1,7 °C 96 % 1017,6 hPa 0,0 l/m² 0 min 0 min 0 W/m² 12,9 km/h (3 Bft) 62,26 %
18.12.2025 06:46 5,6 °C 5,6 °C 2,2 °C 96 % 1017,6 hPa 0,0 l/m² 0 min 0 min 0 W/m² 6,4 km/h (2 Bft) 88,89 %
18.12.2025 06:48 5,6 °C 5,6 °C 2,2 °C 96 % 1017,7 hPa 0,0 l/m² 0 min 0 min 0 W/m² 12,9 km/h (3 Bft) 97,37 %
18.12.2025 06:50 5,6 °C 5,6 °C 2,2 °C 96 % 1017,6 hPa 0,0 l/m² 0 min 0 min 0 W/m² 12,9 km/h (3 Bft) 94,34 %
18.12.2025 06:52 5,6 °C 5,6 °C 2,2 °C 96 % 1017,6 hPa 0,0 l/m² 0 min 0 min 0 W/m² 6,4 km/h (2 Bft) 97,44 %
18.12.2025 06:54 5,6 °C 5,6 °C 2,2 °C 96 % 1017,6 hPa 0,0 l/m² 0 min 0 min 0 W/m² 12,9 km/h (3 Bft) 97,92 %
18.12.2025 06:56 5,7 °C 5,6 °C 2,2 °C 96 % 1017,5 hPa 0,0 l/m² 0 min 0 min 0 W/m² 16,1 km/h (3 Bft) 98,11 %
18.12.2025 06:58 5,7 °C 5,6 °C 2,2 °C 96 % 1017,5 hPa 0,0 l/m² 0 min 0 min 0 W/m² 9,7 km/h (2 Bft) 94,87 %
18.12.2025 07:00 5,7 °C 5,6 °C 2,2 °C 96 % 1017,5 hPa 0,0 l/m² 0 min 0 min 0 W/m² 9,7 km/h (2 Bft) 97,96 %
18.12.2025 07:02 5,7 °C 5,6 °C 2,2 °C 96 % 1017,5 hPa 0,0 l/m² 0 min 0 min 0 W/m² 12,9 km/h (3 Bft) 94,44 %
18.12.2025 07:04 5,7 °C 5,6 °C 2,2 °C 96 % 1017,6 hPa 0,0 l/m² 0 min 0 min 0 W/m² 9,7 km/h (2 Bft) 92,50 %
18.12.2025 07:08 5,8 °C 5,6 °C 2,2 °C 96 % 1017,6 hPa 0,0 l/m² 0 min 0 min 0 W/m² 12,9 km/h (3 Bft) 95,79 %
18.12.2025 07:10 5,8 °C 5,6 °C 2,2 °C 96 % 1017,7 hPa 0,0 l/m² 0 min 0 min 0 W/m² 6,4 km/h (2 Bft) 97,83 %
18.12.2025 07:12 5,8 °C 5,6 °C 2,2 °C 96 % 1017,7 hPa 0,0 l/m² 0 min 0 min 0 W/m² 6,4 km/h (2 Bft) 97,87 %
18.12.2025 07:14 5,8 °C 5,6 °C 2,2 °C 96 % 1017,6 hPa 0,0 l/m² 0 min 0 min 0 W/m² 6,4 km/h (2 Bft) 100,00 %
18.12.2025 07:16 5,8 °C 5,6 °C 2,2 °C 96 % 1017,6 hPa 0,0 l/m² 0 min 0 min 0 W/m² 9,7 km/h (2 Bft) 100,00 %
18.12.2025 07:18 5,8 °C 5,6 °C 2,2 °C 96 % 1017,7 hPa 0,0 l/m² 0 min 0 min 0 W/m² 9,7 km/h (2 Bft) 100,00 %
18.12.2025 07:20 5,9 °C 5,6 °C 2,2 °C 96 % 1017,7 hPa 0,0 l/m² 0 min 0 min 0 W/m² 12,9 km/h (3 Bft) 100,00 %
18.12.2025 07:22 5,9 °C 5,6 °C 2,2 °C 96 % 1017,7 hPa 0,0 l/m² 0 min 0 min 0 W/m² 6,4 km/h (2 Bft) 95,74 %
18.12.2025 07:24 5,9 °C 5,6 °C 2,2 °C 96 % 1017,7 hPa 0,0 l/m² 0 min 0 min 0 W/m² 12,9 km/h (3 Bft) 95,45 %
18.12.2025 07:26 5,9 °C 5,6 °C 2,2 °C 96 % 1017,7 hPa 0,0 l/m² 0 min 0 min 0 W/m² 9,7 km/h (2 Bft) 96,00 %
18.12.2025 07:28 5,9 °C 5,6 °C 2,2 °C 96 % 1017,7 hPa 0,0 l/m² 0 min 0 min 0 W/m² 16,1 km/h (3 Bft) 97,78 %
18.12.2025 07:30 5,9 °C 5,6 °C 2,2 °C 96 % 1017,8 hPa 0,0 l/m² 0 min 0 min 0 W/m² 6,4 km/h (2 Bft) 97,92 %
18.12.2025 07:32 6,0 °C 5,6 °C 2,2 °C 96 % 1017,8 hPa 0,0 l/m² 0 min 0 min 0 W/m² 6,4 km/h (2 Bft) 95,74 %
18.12.2025 07:34 6,0 °C 5,6 °C 2,2 °C 96 % 1017,8 hPa 0,0 l/m² 0 min 0 min 0 W/m² 6,4 km/h (2 Bft) 96,30 %
18.12.2025 07:36 6,0 °C 5,6 °C 2,2 °C 96 % 1017,8 hPa 0,0 l/m² 0 min 0 min 0 W/m² 6,4 km/h (2 Bft) 92,11 %
18.12.2025 07:38 6,0 °C 5,6 °C 2,2 °C 96 % 1017,9 hPa 0,0 l/m² 0 min 0 min 0 W/m² 6,4 km/h (2 Bft) 93,88 %
18.12.2025 07:40 6,1 °C 5,6 °C 2,2 °C 96 % 1017,8 hPa 0,0 l/m² 0 min 0 min 0 W/m² 6,4 km/h (2 Bft) 95,74 %
18.12.2025 07:42 6,1 °C 5,6 °C 2,2 °C 95 % 1017,9 hPa 0,0 l/m² 0 min 0 min 0 W/m² 6,4 km/h (2 Bft) 92,86 %
18.12.2025 07:44 6,1 °C 5,6 °C 2,2 °C 95 % 1018,0 hPa 0,0 l/m² 0 min 0 min 0 W/m² 6,4 km/h (2 Bft) 96,00 %
18.12.2025 07:46 6,1 °C 6,1 °C 2,2 °C 95 % 1018,0 hPa 0,0 l/m² 0 min 0 min 0 W/m² 12,9 km/h (3 Bft) 93,75 %
18.12.2025 07:48 6,1 °C 6,1 °C 2,8 °C 95 % 1018,0 hPa 0,0 l/m² 0 min 0 min 0 W/m² 3,2 km/h (1 Bft) 94,44 %
18.12.2025 07:50 6,1 °C 6,1 °C 2,8 °C 95 % 1018,0 hPa 0,0 l/m² 0 min 0 min 0 W/m² 3,2 km/h (1 Bft) 92,86 %
18.12.2025 07:52 6,1 °C 6,1 °C 2,8 °C 95 % 1018,1 hPa 0,0 l/m² 0 min 0 min 0 W/m² 3,2 km/h (1 Bft) 92,73 %
18.12.2025 07:54 6,2 °C 5,6 °C 2,2 °C 95 % 1018,1 hPa 0,0 l/m² 0 min 0 min 0 W/m² 3,2 km/h (1 Bft) 96,00 %
18.12.2025 07:56 6,2 °C 5,6 °C 2,2 °C 95 % 1018,0 hPa 0,0 l/m² 0 min 0 min 0 W/m² 6,4 km/h (2 Bft) 93,18 %
18.12.2025 07:58 6,2 °C 5,6 °C 2,2 °C 95 % 1017,9 hPa 0,0 l/m² 0 min 0 min 0 W/m² 6,4 km/h (2 Bft) 94,74 %
18.12.2025 08:00 6,2 °C 5,6 °C 2,2 °C 95 % 1017,9 hPa 0,0 l/m² 0 min 0 min 0 W/m² 6,4 km/h (2 Bft) 91,49 %
18.12.2025 08:02 6,2 °C 5,6 °C 2,2 °C 95 % 1017,8 hPa 0,0 l/m² 0 min 0 min 0 W/m² 12,9 km/h (3 Bft) 95,00 %
18.12.2025 08:04 6,2 °C 5,6 °C 2,2 °C 95 % 1017,9 hPa 0,0 l/m² 0 min 0 min 0 W/m² 12,9 km/h (3 Bft) 93,48 %
18.12.2025 08:08 6,3 °C 5,6 °C 2,2 °C 95 % 1018,0 hPa 0,0 l/m² 0 min 0 min 0 W/m² 16,1 km/h (3 Bft) 97,87 %
18.12.2025 08:10 6,3 °C 6,1 °C 2,8 °C 95 % 1018,0 hPa 0,0 l/m² 0 min 0 min 0 W/m² 6,4 km/h (2 Bft) 97,78 %
18.12.2025 08:12 6,3 °C 6,1 °C 2,8 °C 95 % 1018,0 hPa 0,0 l/m² 0 min 0 min 0 W/m² 16,1 km/h (3 Bft) 97,50 %
18.12.2025 08:14 6,3 °C 6,1 °C 2,8 °C 95 % 1018,0 hPa 0,0 l/m² 0 min 0 min 0 W/m² 12,9 km/h (3 Bft) 98,28 %
18.12.2025 08:16 6,3 °C 6,1 °C 2,8 °C 95 % 1018,1 hPa 0,0 l/m² 0 min 0 min 0 W/m² 12,9 km/h (3 Bft) 97,87 %
18.12.2025 08:18 6,3 °C 6,1 °C 2,8 °C 95 % 1018,1 hPa 0,0 l/m² 0 min 0 min 0 W/m² 16,1 km/h (3 Bft) 97,83 %
18.12.2025 08:20 6,3 °C 6,1 °C 2,8 °C 95 % 1018,1 hPa 0,0 l/m² 0 min 0 min 0 W/m² 12,9 km/h (3 Bft) 97,67 %
18.12.2025 08:22 6,4 °C 6,1 °C 2,8 °C 95 % 1018,2 hPa 0,0 l/m² 0 min 0 min 0 W/m² 6,4 km/h (2 Bft) 96,15 %
18.12.2025 08:26 6,4 °C 6,1 °C 2,8 °C 95 % 1018,2 hPa 0,0 l/m² 0 min 0 min 0 W/m² 12,9 km/h (3 Bft) 98,92 %
18.12.2025 08:28 6,5 °C 6,1 °C 2,8 °C 95 % 1018,2 hPa 0,0 l/m² 0 min 0 min 0 W/m² 9,7 km/h (2 Bft) 100,00 %
18.12.2025 08:30 6,5 °C 6,1 °C 2,8 °C 95 % 1018,2 hPa 0,0 l/m² 0 min 0 min 0 W/m² 12,9 km/h (3 Bft) 97,96 %
18.12.2025 08:32 6,5 °C 6,1 °C 2,8 °C 95 % 1018,1 hPa 0,0 l/m² 0 min 0 min 0 W/m² 6,4 km/h (2 Bft) 97,87 %
18.12.2025 08:34 6,5 °C 6,1 °C 2,8 °C 95 % 1018,1 hPa 0,0 l/m² 0 min 0 min 0 W/m² 6,4 km/h (2 Bft) 93,18 %
18.12.2025 08:36 6,5 °C 6,1 °C 2,8 °C 95 % 1018,1 hPa 0,0 l/m² 0 min 0 min 0 W/m² 6,4 km/h (2 Bft) 97,92 %
18.12.2025 08:38 6,6 °C 6,1 °C 2,8 °C 95 % 1018,1 hPa 0,0 l/m² 0 min 0 min 0 W/m² 6,4 km/h (2 Bft) 100,00 %
18.12.2025 08:40 6,6 °C 6,1 °C 2,8 °C 95 % 1018,2 hPa 0,0 l/m² 0 min 0 min 0 W/m² 6,4 km/h (2 Bft) 94,83 %
18.12.2025 08:42 6,6 °C 6,1 °C 2,8 °C 95 % 1018,3 hPa 0,0 l/m² 0 min 0 min 1 W/m² 3,2 km/h (1 Bft) 97,87 %
18.12.2025 08:44 6,6 °C 6,1 °C 2,8 °C 95 % 1018,3 hPa 0,0 l/m² 0 min 0 min 5 W/m² 6,4 km/h (2 Bft) 97,78 %
18.12.2025 08:46 6,7 °C 6,1 °C 2,8 °C 95 % 1018,3 hPa 0,0 l/m² 0 min 0 min 5 W/m² 6,4 km/h (2 Bft) 97,83 %
18.12.2025 08:48 6,7 °C 6,1 °C 2,8 °C 95 % 1018,3 hPa 0,0 l/m² 0 min 0 min 5 W/m² 12,9 km/h (3 Bft) 95,56 %
18.12.2025 08:50 6,7 °C 6,7 °C 2,8 °C 95 % 1018,3 hPa 0,0 l/m² 0 min 0 min 7 W/m² 6,4 km/h (2 Bft) 97,50 %
18.12.2025 08:52 6,7 °C 6,7 °C 2,8 °C 95 % 1018,3 hPa 0,0 l/m² 0 min 0 min 7 W/m² 6,4 km/h (2 Bft) 98,28 %
18.12.2025 08:54 6,7 °C 6,7 °C 2,8 °C 95 % 1018,3 hPa 0,0 l/m² 0 min 0 min 8 W/m² 9,7 km/h (2 Bft) 97,87 %
18.12.2025 08:56 6,7 °C 6,7 °C 2,8 °C 95 % 1018,3 hPa 0,0 l/m² 0 min 0 min 9 W/m² 6,4 km/h (2 Bft) 97,78 %
18.12.2025 08:58 6,8 °C 6,7 °C 2,8 °C 94 % 1018,2 hPa 0,0 l/m² 0 min 0 min 9 W/m² 6,4 km/h (2 Bft) 97,83 %
18.12.2025 09:00 6,8 °C 6,7 °C 2,8 °C 95 % 1018,2 hPa 0,0 l/m² 0 min 0 min 9 W/m² 6,4 km/h (2 Bft) 95,56 %
18.12.2025 09:02 6,8 °C 6,7 °C 2,8 °C 95 % 1018,2 hPa 0,0 l/m² 0 min 0 min 10 W/m² 3,2 km/h (1 Bft) 97,50 %
18.12.2025 09:04 6,8 °C 6,7 °C 2,8 °C 95 % 1018,3 hPa 0,0 l/m² 0 min 0 min 11 W/m² 6,4 km/h (2 Bft) 100,00 %
18.12.2025 09:07 6,8 °C 6,7 °C 3,3 °C 95 % 1018,3 hPa 0,0 l/m² 0 min 0 min 11 W/m² 6,4 km/h (2 Bft) 100,00 %
18.12.2025 09:08 6,8 °C 6,7 °C 3,3 °C 95 % 1018,2 hPa 0,0 l/m² 0 min 0 min 12 W/m² 6,4 km/h (2 Bft) 95,24 %
18.12.2025 09:12 6,9 °C 6,7 °C 3,3 °C 94 % 1018,3 hPa 0,0 l/m² 0 min 0 min 14 W/m² 6,4 km/h (2 Bft) 100,00 %
18.12.2025 09:14 6,9 °C 6,7 °C 3,3 °C 94 % 1018,2 hPa 0,0 l/m² 0 min 0 min 14 W/m² 12,9 km/h (3 Bft) 100,00 %
18.12.2025 09:16 6,9 °C 6,7 °C 3,3 °C 94 % 1018,2 hPa 0,0 l/m² 0 min 0 min 16 W/m² 6,4 km/h (2 Bft) 100,00 %
18.12.2025 09:18 6,9 °C 6,7 °C 3,3 °C 94 % 1018,3 hPa 0,0 l/m² 0 min 0 min 17 W/m² 3,2 km/h (1 Bft) 100,00 %
18.12.2025 09:20 7,0 °C 6,7 °C 3,3 °C 94 % 1018,3 hPa 0,0 l/m² 0 min 0 min 18 W/m² 12,9 km/h (3 Bft) 100,00 %
18.12.2025 09:22 7,0 °C 6,7 °C 3,3 °C 94 % 1018,3 hPa 0,0 l/m² 0 min 0 min 19 W/m² 6,4 km/h (2 Bft) 100,00 %
18.12.2025 09:24 7,1 °C 6,7 °C 3,3 °C 94 % 1018,3 hPa 0,0 l/m² 0 min 0 min 22 W/m² 12,9 km/h (3 Bft) 100,00 %
18.12.2025 09:26 7,1 °C 6,7 °C 3,3 °C 94 % 1018,3 hPa 0,0 l/m² 0 min 0 min 25 W/m² 12,9 km/h (3 Bft) 100,00 %
18.12.2025 09:28 7,1 °C 6,7 °C 3,3 °C 94 % 1018,3 hPa 0,0 l/m² 0 min 0 min 26 W/m² 6,4 km/h (2 Bft) 100,00 %
18.12.2025 09:30 7,1 °C 6,7 °C 3,3 °C 94 % 1018,3 hPa 0,0 l/m² 0 min 0 min 28 W/m² 12,9 km/h (3 Bft) 100,00 %
18.12.2025 09:32 7,1 °C 6,7 °C 3,3 °C 94 % 1018,3 hPa 0,0 l/m² 0 min 0 min 31 W/m² 6,4 km/h (2 Bft) 100,00 %
18.12.2025 09:34 7,2 °C 6,7 °C 3,3 °C 94 % 1018,3 hPa 0,0 l/m² 0 min 0 min 33 W/m² 12,9 km/h (3 Bft) 100,00 %
18.12.2025 09:36 7,2 °C 6,7 °C 3,3 °C 94 % 1018,3 hPa 0,0 l/m² 0 min 0 min 35 W/m² 12,9 km/h (3 Bft) 97,56 %
18.12.2025 09:38 7,2 °C 7,2 °C 3,3 °C 94 % 1018,2 hPa 0,0 l/m² 0 min 0 min 35 W/m² 12,9 km/h (3 Bft) 100,00 %
18.12.2025 09:40 7,2 °C 7,2 °C 3,3 °C 94 % 1018,2 hPa 0,0 l/m² 0 min 0 min 33 W/m² 12,9 km/h (3 Bft) 97,83 %
18.12.2025 09:42 7,2 °C 7,2 °C 3,3 °C 94 % 1018,2 hPa 0,0 l/m² 0 min 0 min 33 W/m² 12,9 km/h (3 Bft) 100,00 %
18.12.2025 09:44 7,2 °C 7,2 °C 3,3 °C 94 % 1018,2 hPa 0,0 l/m² 0 min 0 min 34 W/m² 12,9 km/h (3 Bft) 100,00 %
18.12.2025 09:46 7,3 °C 7,2 °C 3,3 °C 94 % 1018,1 hPa 0,0 l/m² 0 min 0 min 35 W/m² 12,9 km/h (3 Bft) 97,50 %
18.12.2025 09:48 7,3 °C 7,2 °C 3,3 °C 94 % 1018,2 hPa 0,0 l/m² 0 min 0 min 35 W/m² 12,9 km/h (3 Bft) 96,55 %
18.12.2025 09:50 7,3 °C 7,2 °C 3,3 °C 94 % 1018,1 hPa 0,0 l/m² 0 min 0 min 37 W/m² 12,9 km/h (3 Bft) 100,00 %
18.12.2025 09:52 7,3 °C 7,2 °C 3,3 °C 94 % 1018,1 hPa 0,0 l/m² 0 min 0 min 39 W/m² 6,4 km/h (2 Bft) 97,78 %
18.12.2025 09:54 7,3 °C 7,2 °C 3,3 °C 94 % 1018,1 hPa 0,0 l/m² 0 min 0 min 41 W/m² 12,9 km/h (3 Bft) 100,00 %
18.12.2025 09:56 7,3 °C 7,2 °C 3,3 °C 94 % 1018,1 hPa 0,0 l/m² 0 min 0 min 44 W/m² 16,1 km/h (3 Bft) 97,50 %
18.12.2025 09:58 7,3 °C 7,2 °C 3,3 °C 94 % 1018,1 hPa 0,0 l/m² 0 min 0 min 49 W/m² 12,9 km/h (3 Bft) 98,31 %
18.12.2025 10:00 7,4 °C 7,2 °C 3,3 °C 94 % 1018,1 hPa 0,0 l/m² 0 min 0 min 56 W/m² 12,9 km/h (3 Bft) 97,83 %
18.12.2025 10:02 7,4 °C 7,8 °C 3,9 °C 94 % 1018,1 hPa 0,0 l/m² 0 min 0 min 64 W/m² 12,9 km/h (3 Bft) 97,78 %
18.12.2025 10:04 7,4 °C 7,8 °C 3,9 °C 94 % 1018,1 hPa 0,0 l/m² 0 min 0 min 70 W/m² 9,7 km/h (2 Bft) 97,50 %
18.12.2025 10:06 7,5 °C 7,8 °C 3,9 °C 94 % 1018,1 hPa 0,0 l/m² 0 min 0 min 72 W/m² 6,4 km/h (2 Bft) 96,61 %
18.12.2025 10:08 7,5 °C 7,8 °C 3,9 °C 94 % 1018,1 hPa 0,0 l/m² 0 min 0 min 71 W/m² 16,1 km/h (3 Bft) 97,14 %
18.12.2025 10:10 7,6 °C 7,8 °C 3,9 °C 94 % 1018,1 hPa 0,0 l/m² 0 min 0 min 67 W/m² 16,1 km/h (3 Bft) 98,25 %
18.12.2025 10:12 7,6 °C 7,8 °C 3,9 °C 94 % 1018,0 hPa 0,0 l/m² 0 min 0 min 63 W/m² 6,4 km/h (2 Bft) 97,73 %
18.12.2025 10:14 7,7 °C 7,8 °C 4,4 °C 94 % 1018,0 hPa 0,0 l/m² 0 min 0 min 62 W/m² 12,9 km/h (3 Bft) 97,44 %
18.12.2025 10:16 7,7 °C 8,3 °C 4,4 °C 94 % 1018,0 hPa 0,0 l/m² 0 min 0 min 63 W/m² 12,9 km/h (3 Bft) 97,96 %
18.12.2025 10:18 7,7 °C 8,3 °C 4,4 °C 94 % 1018,0 hPa 0,0 l/m² 0 min 0 min 65 W/m² 12,9 km/h (3 Bft) 94,64 %
18.12.2025 10:20 7,8 °C 8,3 °C 4,4 °C 94 % 1018,0 hPa 0,0 l/m² 0 min 0 min 63 W/m² 16,1 km/h (3 Bft) 97,56 %
18.12.2025 10:22 7,9 °C 8,3 °C 4,4 °C 94 % 1018,0 hPa 0,0 l/m² 0 min 0 min 60 W/m² 16,1 km/h (3 Bft) 97,87 %
18.12.2025 10:24 7,9 °C 8,3 °C 4,4 °C 94 % 1018,0 hPa 0,0 l/m² 0 min 0 min 56 W/m² 22,5 km/h (4 Bft) 97,78 %
18.12.2025 10:26 8,0 °C 8,3 °C 4,4 °C 94 % 1018,0 hPa 0,0 l/m² 0 min 0 min 54 W/m² 12,9 km/h (3 Bft) 95,56 %
18.12.2025 10:28 8,1 °C 8,3 °C 4,4 °C 94 % 1018,0 hPa 0,0 l/m² 0 min 0 min 54 W/m² 12,9 km/h (3 Bft) 60,38 %
18.12.2025 10:30 8,1 °C 8,3 °C 4,4 °C 94 % 1018,0 hPa 0,0 l/m² 0 min 0 min 55 W/m² 12,9 km/h (3 Bft) 93,62 %
18.12.2025 10:32 8,2 °C 8,3 °C 4,4 °C 94 % 1018,0 hPa 0,0 l/m² 0 min 0 min 58 W/m² 16,1 km/h (3 Bft) 92,68 %
18.12.2025 10:34 8,2 °C 8,3 °C 5,0 °C 93 % 1017,9 hPa 0,0 l/m² 0 min 0 min 61 W/m² 12,9 km/h (3 Bft) 93,02 %
18.12.2025 10:36 8,3 °C 8,3 °C 5,0 °C 93 % 1018,0 hPa 0,0 l/m² 0 min 0 min 63 W/m² 16,1 km/h (3 Bft) 95,65 %
18.12.2025 10:38 8,3 °C 8,3 °C 5,0 °C 93 % 1018,0 hPa 0,0 l/m² 0 min 0 min 64 W/m² 12,9 km/h (3 Bft) 91,67 %
18.12.2025 10:40 8,4 °C 8,3 °C 5,0 °C 93 % 1017,9 hPa 0,0 l/m² 0 min 0 min 65 W/m² 16,1 km/h (3 Bft) 91,67 %
18.12.2025 10:42 8,4 °C 8,3 °C 5,0 °C 93 % 1017,9 hPa 0,0 l/m² 0 min 0 min 68 W/m² 9,7 km/h (2 Bft) 95,65 %
18.12.2025 10:44 8,4 °C 8,9 °C 5,0 °C 93 % 1017,9 hPa 0,0 l/m² 0 min 0 min 70 W/m² 12,9 km/h (3 Bft) 94,00 %
18.12.2025 10:46 8,5 °C 8,9 °C 5,0 °C 93 % 1017,8 hPa 0,0 l/m² 0 min 0 min 70 W/m² 12,9 km/h (3 Bft) 89,36 %
18.12.2025 10:48 8,6 °C 8,9 °C 5,0 °C 93 % 1017,7 hPa 0,0 l/m² 0 min 0 min 70 W/m² 12,9 km/h (3 Bft) 89,13 %
18.12.2025 10:50 8,6 °C 8,9 °C 5,0 °C 93 % 1017,7 hPa 0,0 l/m² 0 min 0 min 76 W/m² 12,9 km/h (3 Bft) 93,62 %
18.12.2025 10:52 8,7 °C 8,9 °C 5,0 °C 93 % 1017,7 hPa 0,0 l/m² 0 min 0 min 81 W/m² 12,9 km/h (3 Bft) 97,87 %
18.12.2025 10:54 8,7 °C 8,9 °C 5,0 °C 92 % 1017,7 hPa 0,0 l/m² 0 min 0 min 78 W/m² 16,1 km/h (3 Bft) 95,74 %
18.12.2025 10:56 8,7 °C 8,9 °C 5,0 °C 92 % 1017,7 hPa 0,0 l/m² 0 min 0 min 77 W/m² 6,4 km/h (2 Bft) 91,49 %
18.12.2025 10:58 8,8 °C 8,9 °C 5,0 °C 92 % 1017,7 hPa 0,0 l/m² 0 min 0 min 78 W/m² 12,9 km/h (3 Bft) 95,65 %
18.12.2025 11:00 8,8 °C 8,9 °C 5,0 °C 92 % 1017,7 hPa 0,0 l/m² 0 min 0 min 80 W/m² 12,9 km/h (3 Bft) 97,87 %
18.12.2025 11:02 8,8 °C 8,9 °C 5,0 °C 92 % 1017,6 hPa 0,0 l/m² 0 min 0 min 81 W/m² 12,9 km/h (3 Bft) 100,00 %
18.12.2025 11:04 8,9 °C 8,9 °C 5,0 °C 92 % 1017,6 hPa 0,0 l/m² 0 min 0 min 83 W/m² 16,1 km/h (3 Bft) 97,83 %
18.12.2025 11:06 8,9 °C 8,9 °C 5,0 °C 92 % 1017,6 hPa 0,0 l/m² 0 min 0 min 83 W/m² 25,7 km/h (4 Bft) 98,04 %
18.12.2025 11:08 9,0 °C 9,4 °C 5,6 °C 92 % 1017,6 hPa 0,0 l/m² 0 min 0 min 83 W/m² 16,1 km/h (3 Bft) 97,56 %
18.12.2025 11:10 9,1 °C 9,4 °C 5,6 °C 91 % 1017,5 hPa 0,0 l/m² 0 min 0 min 83 W/m² 19,3 km/h (3 Bft) 98,08 %
18.12.2025 11:12 9,1 °C 9,4 °C 5,6 °C 91 % 1017,5 hPa 0,0 l/m² 0 min 0 min 87 W/m² 19,3 km/h (3 Bft) 97,87 %
18.12.2025 11:14 9,1 °C 9,4 °C 5,6 °C 91 % 1017,5 hPa 0,0 l/m² 0 min 0 min 91 W/m² 16,1 km/h (3 Bft) 100,00 %
18.12.2025 11:16 9,2 °C 9,4 °C 5,6 °C 91 % 1017,5 hPa 0,0 l/m² 0 min 0 min 90 W/m² 19,3 km/h (3 Bft) 100,00 %
18.12.2025 11:18 9,2 °C 9,4 °C 5,6 °C 91 % 1017,5 hPa 0,0 l/m² 0 min 0 min 90 W/m² 16,1 km/h (3 Bft) 97,87 %
18.12.2025 11:20 9,3 °C 9,4 °C 5,6 °C 91 % 1017,5 hPa 0,0 l/m² 0 min 0 min 91 W/m² 9,7 km/h (2 Bft) 97,78 %
18.12.2025 11:22 9,3 °C 9,4 °C 5,6 °C 91 % 1017,5 hPa 0,0 l/m² 0 min 0 min 92 W/m² 16,1 km/h (3 Bft) 97,73 %
18.12.2025 11:24 9,3 °C 9,4 °C 5,6 °C 91 % 1017,4 hPa 0,0 l/m² 0 min 0 min 90 W/m² 19,3 km/h (3 Bft) 98,04 %
18.12.2025 11:26 9,4 °C 9,4 °C 5,6 °C 91 % 1017,4 hPa 0,0 l/m² 0 min 0 min 88 W/m² 12,9 km/h (3 Bft) 100,00 %
18.12.2025 11:28 9,4 °C 9,4 °C 5,6 °C 90 % 1017,5 hPa 0,0 l/m² 0 min 0 min 86 W/m² 12,9 km/h (3 Bft) 93,33 %
18.12.2025 11:30 9,5 °C 9,4 °C 5,6 °C 90 % 1017,4 hPa 0,0 l/m² 0 min 0 min 88 W/m² 16,1 km/h (3 Bft) 100,00 %
18.12.2025 11:32 9,5 °C 9,4 °C 5,6 °C 90 % 1017,4 hPa 0,0 l/m² 0 min 0 min 88 W/m² 19,3 km/h (3 Bft) 100,00 %
18.12.2025 11:34 9,6 °C 9,4 °C 5,6 °C 90 % 1017,4 hPa 0,0 l/m² 0 min 0 min 89 W/m² 12,9 km/h (3 Bft) 100,00 %
18.12.2025 11:36 9,6 °C 10,0 °C 5,6 °C 90 % 1017,3 hPa 0,0 l/m² 0 min 0 min 91 W/m² 16,1 km/h (3 Bft) 100,00 %
18.12.2025 11:38 9,6 °C 10,0 °C 5,6 °C 90 % 1017,3 hPa 0,0 l/m² 0 min 0 min 94 W/m² 16,1 km/h (3 Bft) 97,78 %
18.12.2025 11:40 9,7 °C 10,0 °C 5,6 °C 90 % 1017,3 hPa 0,0 l/m² 0 min 0 min 96 W/m² 12,9 km/h (3 Bft) 100,00 %
18.12.2025 11:42 9,7 °C 10,0 °C 6,1 °C 90 % 1017,2 hPa 0,0 l/m² 0 min 0 min 99 W/m² 22,5 km/h (4 Bft) 100,00 %
18.12.2025 11:44 9,8 °C 10,0 °C 6,1 °C 90 % 1017,2 hPa 0,0 l/m² 0 min 0 min 102 W/m² 12,9 km/h (3 Bft) 100,00 %
18.12.2025 11:46 9,8 °C 10,0 °C 6,1 °C 89 % 1017,2 hPa 0,0 l/m² 0 min 0 min 102 W/m² 12,9 km/h (3 Bft) 97,83 %
18.12.2025 11:48 9,8 °C 10,0 °C 6,1 °C 89 % 1017,1 hPa 0,0 l/m² 0 min 0 min 103 W/m² 19,3 km/h (3 Bft) 100,00 %
18.12.2025 11:50 9,9 °C 10,0 °C 6,1 °C 89 % 1017,1 hPa 0,0 l/m² 0 min 0 min 105 W/m² 16,1 km/h (3 Bft) 100,00 %
18.12.2025 11:52 9,9 °C 10,0 °C 6,1 °C 89 % 1017,1 hPa 0,0 l/m² 0 min 0 min 105 W/m² 16,1 km/h (3 Bft) 100,00 %
18.12.2025 11:54 9,9 °C 10,0 °C 6,1 °C 89 % 1017,1 hPa 0,0 l/m² 0 min 0 min 104 W/m² 16,1 km/h (3 Bft) 100,00 %
18.12.2025 11:56 10,0 °C 10,0 °C 6,1 °C 89 % 1017,1 hPa 0,0 l/m² 0 min 0 min 105 W/m² 19,3 km/h (3 Bft) 100,00 %
18.12.2025 11:58 10,1 °C 10,0 °C 6,1 °C 89 % 1017,2 hPa 0,0 l/m² 0 min 0 min 107 W/m² 19,3 km/h (3 Bft) 100,00 %
18.12.2025 12:00 10,1 °C 10,0 °C 6,1 °C 89 % 1017,1 hPa 0,0 l/m² 0 min 0 min 107 W/m² 19,3 km/h (3 Bft) 100,00 %
18.12.2025 12:02 10,1 °C 10,0 °C 6,1 °C 89 % 1017,1 hPa 0,0 l/m² 0 min 0 min 107 W/m² 19,3 km/h (3 Bft) 95,74 %
18.12.2025 12:04 10,2 °C 10,6 °C 6,1 °C 89 % 1017,1 hPa 0,0 l/m² 0 min 0 min 111 W/m² 16,1 km/h (3 Bft) 100,00 %
18.12.2025 12:07 10,2 °C 10,6 °C 6,1 °C 89 % 1017,1 hPa 0,0 l/m² 0 min 0 min 107 W/m² 16,1 km/h (3 Bft) 100,00 %
18.12.2025 12:08 10,2 °C 10,6 °C 6,1 °C 88 % 1017,1 hPa 0,0 l/m² 0 min 0 min 107 W/m² 16,1 km/h (3 Bft) 100,00 %
18.12.2025 12:12 10,3 °C 10,6 °C 6,1 °C 88 % 1017,0 hPa 0,0 l/m² 0 min 0 min 108 W/m² 16,1 km/h (3 Bft) 98,37 %
18.12.2025 12:16 10,3 °C 10,6 °C 6,1 °C 88 % 1016,9 hPa 0,0 l/m² 0 min 0 min 110 W/m² 19,3 km/h (3 Bft) 98,92 %
18.12.2025 12:18 10,3 °C 10,6 °C 6,7 °C 88 % 1016,9 hPa 0,0 l/m² 0 min 0 min 113 W/m² 16,1 km/h (3 Bft) 100,00 %
18.12.2025 12:20 10,4 °C 10,6 °C 6,7 °C 88 % 1016,9 hPa 0,0 l/m² 0 min 0 min 115 W/m² 16,1 km/h (3 Bft) 97,87 %
18.12.2025 12:22 10,4 °C 10,6 °C 6,7 °C 88 % 1016,9 hPa 0,0 l/m² 0 min 0 min 119 W/m² 12,9 km/h (3 Bft) 97,87 %
18.12.2025 12:24 10,5 °C 10,6 °C 6,7 °C 88 % 1016,8 hPa 0,0 l/m² 0 min 0 min 123 W/m² 16,1 km/h (3 Bft) 100,00 %
18.12.2025 12:26 10,5 °C 10,6 °C 6,7 °C 88 % 1016,8 hPa 0,0 l/m² 0 min 0 min 126 W/m² 16,1 km/h (3 Bft) 100,00 %
18.12.2025 12:28 10,5 °C 11,1 °C 6,7 °C 88 % 1016,8 hPa 0,0 l/m² 0 min 0 min 128 W/m² 16,1 km/h (3 Bft) 97,87 %
18.12.2025 12:30 10,6 °C 11,1 °C 6,7 °C 88 % 1016,7 hPa 0,0 l/m² 0 min 0 min 128 W/m² 16,1 km/h (3 Bft) 95,83 %
18.12.2025 12:32 10,6 °C 11,1 °C 6,7 °C 88 % 1016,7 hPa 0,0 l/m² 0 min 0 min 132 W/m² 16,1 km/h (3 Bft) 98,00 %
18.12.2025 12:34 10,6 °C 11,1 °C 6,7 °C 88 % 1016,7 hPa 0,0 l/m² 0 min 0 min 133 W/m² 12,9 km/h (3 Bft) 97,87 %
18.12.2025 12:36 10,7 °C 11,7 °C 6,7 °C 88 % 1016,7 hPa 0,0 l/m² 0 min 0 min 135 W/m² 12,9 km/h (3 Bft) 97,87 %
18.12.2025 12:38 10,7 °C 11,7 °C 6,7 °C 88 % 1016,7 hPa 0,0 l/m² 0 min 0 min 137 W/m² 16,1 km/h (3 Bft) 97,87 %
18.12.2025 12:40 10,7 °C 11,7 °C 6,7 °C 88 % 1016,6 hPa 0,0 l/m² 0 min 0 min 138 W/m² 19,3 km/h (3 Bft) 97,87 %
18.12.2025 12:42 10,8 °C 11,7 °C 6,7 °C 88 % 1016,6 hPa 0,0 l/m² 0 min 0 min 147 W/m² 19,3 km/h (3 Bft) 97,83 %
18.12.2025 12:44 10,8 °C 11,7 °C 6,7 °C 87 % 1016,5 hPa 0,0 l/m² 2 min 0 min 158 W/m² 19,3 km/h (3 Bft) 95,74 %
18.12.2025 12:46 10,8 °C 11,7 °C 6,7 °C 87 % 1016,5 hPa 0,0 l/m² 2 min 0 min 150 W/m² 12,9 km/h (3 Bft) 97,87 %
18.12.2025 12:48 10,9 °C 11,7 °C 7,2 °C 87 % 1016,4 hPa 0,0 l/m² 0 min 0 min 141 W/m² 19,3 km/h (3 Bft) 97,14 %
18.12.2025 12:50 10,9 °C 11,7 °C 7,2 °C 86 % 1016,4 hPa 0,0 l/m² 0 min 0 min 136 W/m² 16,1 km/h (3 Bft) 95,74 %
18.12.2025 12:52 11,0 °C 11,7 °C 7,2 °C 86 % 1016,4 hPa 0,0 l/m² 0 min 0 min 140 W/m² 19,3 km/h (3 Bft) 98,15 %
18.12.2025 12:54 11,1 °C 12,2 °C 7,2 °C 86 % 1016,4 hPa 0,0 l/m² 2 min 0 min 176 W/m² 16,1 km/h (3 Bft) 95,83 %
18.12.2025 12:56 11,1 °C 12,2 °C 7,2 °C 85 % 1016,3 hPa 0,0 l/m² 2 min 0 min 180 W/m² 16,1 km/h (3 Bft) 95,65 %
18.12.2025 12:58 11,2 °C 12,2 °C 7,2 °C 85 % 1016,3 hPa 0,0 l/m² 2 min 0 min 167 W/m² 12,9 km/h (3 Bft) 97,92 %
18.12.2025 13:00 11,2 °C 12,2 °C 7,2 °C 85 % 1016,3 hPa 0,0 l/m² 2 min 0 min 157 W/m² 19,3 km/h (3 Bft) 97,37 %
18.12.2025 13:02 11,3 °C 12,2 °C 7,2 °C 84 % 1016,2 hPa 0,0 l/m² 2 min 0 min 148 W/m² 22,5 km/h (4 Bft) 93,22 %
18.12.2025 13:04 11,3 °C 12,2 °C 7,2 °C 84 % 1016,3 hPa 0,0 l/m² 2 min 0 min 171 W/m² 19,3 km/h (3 Bft) 100,00 %
18.12.2025 13:08 11,4 °C 12,2 °C 7,2 °C 83 % 1016,2 hPa 0,0 l/m² 4 min 0 min 163 W/m² 25,7 km/h (4 Bft) 92,47 %
18.12.2025 13:10 11,5 °C 12,8 °C 7,2 °C 83 % 1016,2 hPa 0,0 l/m² 2 min 0 min 195 W/m² 16,1 km/h (3 Bft) 95,74 %
18.12.2025 13:12 11,6 °C 12,8 °C 7,2 °C 83 % 1016,2 hPa 0,0 l/m² 2 min 0 min 257 W/m² 25,7 km/h (4 Bft) 93,62 %
18.12.2025 13:14 11,7 °C 13,3 °C 7,2 °C 83 % 1016,1 hPa 0,0 l/m² 2 min 0 min 264 W/m² 25,7 km/h (4 Bft) 95,74 %
18.12.2025 13:16 11,7 °C 13,3 °C 7,2 °C 82 % 1016,1 hPa 0,0 l/m² 2 min 0 min 261 W/m² 22,5 km/h (4 Bft) 95,74 %
18.12.2025 13:18 11,8 °C 13,3 °C 7,2 °C 82 % 1016,2 hPa 0,0 l/m² 2 min 0 min 250 W/m² 16,1 km/h (3 Bft) 92,45 %
18.12.2025 13:20 11,9 °C 13,3 °C 7,2 °C 82 % 1016,1 hPa 0,0 l/m² 2 min 0 min 242 W/m² 12,9 km/h (3 Bft) 96,08 %
18.12.2025 13:22 12,0 °C 13,3 °C 7,2 °C 82 % 1016,1 hPa 0,0 l/m² 2 min 0 min 234 W/m² 22,5 km/h (4 Bft) 95,74 %
18.12.2025 13:24 12,1 °C 12,8 °C 7,2 °C 81 % 1016,0 hPa 0,0 l/m² 2 min 0 min 196 W/m² 22,5 km/h (4 Bft) 94,44 %
18.12.2025 13:26 12,2 °C 12,8 °C 7,2 °C 81 % 1015,9 hPa 0,0 l/m² 2 min 0 min 197 W/m² 22,5 km/h (4 Bft) 95,74 %
18.12.2025 13:28 12,2 °C 12,8 °C 7,2 °C 81 % 1016,0 hPa 0,0 l/m² 2 min 0 min 207 W/m² 22,5 km/h (4 Bft) 95,74 %
18.12.2025 13:30 12,3 °C 12,8 °C 7,2 °C 81 % 1015,9 hPa 0,0 l/m² 2 min 0 min 207 W/m² 19,3 km/h (3 Bft) 96,23 %
18.12.2025 13:32 12,3 °C 12,8 °C 7,2 °C 80 % 1015,8 hPa 0,0 l/m² 2 min 0 min 202 W/m² 22,5 km/h (4 Bft) 90,20 %
18.12.2025 13:34 12,4 °C 12,8 °C 7,2 °C 80 % 1015,8 hPa 0,0 l/m² 2 min 0 min 199 W/m² 22,5 km/h (4 Bft) 95,65 %
18.12.2025 13:36 12,4 °C 12,2 °C 7,2 °C 80 % 1015,8 hPa 0,0 l/m² 2 min 0 min 186 W/m² 19,3 km/h (3 Bft) 97,30 %
18.12.2025 13:38 12,4 °C 12,2 °C 7,2 °C 80 % 1015,8 hPa 0,0 l/m² 2 min 0 min 186 W/m² 22,5 km/h (4 Bft) 94,64 %
18.12.2025 13:40 12,4 °C 12,2 °C 7,2 °C 80 % 1015,7 hPa 0,0 l/m² 2 min 0 min 189 W/m² 29,0 km/h (5 Bft) 93,62 %
18.12.2025 13:42 12,4 °C 12,2 °C 7,2 °C 80 % 1015,7 hPa 0,0 l/m² 2 min 0 min 192 W/m² 22,5 km/h (4 Bft) 95,83 %
18.12.2025 13:44 12,4 °C 12,2 °C 7,2 °C 80 % 1015,7 hPa 0,0 l/m² 2 min 0 min 198 W/m² 22,5 km/h (4 Bft) 94,44 %
18.12.2025 13:46 12,4 °C 12,2 °C 7,2 °C 80 % 1015,7 hPa 0,0 l/m² 2 min 0 min 199 W/m² 25,7 km/h (4 Bft) 93,62 %
18.12.2025 13:48 12,3 °C 12,2 °C 7,2 °C 80 % 1015,7 hPa 0,0 l/m² 2 min 0 min 186 W/m² 16,1 km/h (3 Bft) 96,43 %
18.12.2025 13:50 12,3 °C 12,2 °C 7,2 °C 80 % 1015,7 hPa 0,0 l/m² 2 min 0 min 186 W/m² 12,9 km/h (3 Bft) 97,87 %
18.12.2025 13:52 12,4 °C 12,2 °C 7,2 °C 81 % 1015,6 hPa 0,0 l/m² 2 min 0 min 148 W/m² 16,1 km/h (3 Bft) 97,96 %
18.12.2025 13:54 12,3 °C 11,7 °C 7,2 °C 80 % 1015,6 hPa 0,0 l/m² 2 min 0 min 132 W/m² 22,5 km/h (4 Bft) 97,22 %
18.12.2025 13:56 12,3 °C 11,7 °C 7,2 °C 80 % 1015,5 hPa 0,0 l/m² 2 min 0 min 186 W/m² 29,0 km/h (5 Bft) 94,55 %
18.12.2025 13:58 12,3 °C 11,7 °C 7,2 °C 81 % 1015,5 hPa 0,0 l/m² 2 min 0 min 187 W/m² 19,3 km/h (3 Bft) 97,37 %
18.12.2025 14:00 12,3 °C 11,7 °C 7,2 °C 81 % 1015,5 hPa 0,0 l/m² 2 min 0 min 168 W/m² 25,7 km/h (4 Bft) 97,87 %
18.12.2025 14:02 12,3 °C 11,7 °C 7,2 °C 81 % 1015,5 hPa 0,0 l/m² 2 min 0 min 183 W/m² 25,7 km/h (4 Bft) 100,00 %
18.12.2025 14:04 12,3 °C 12,2 °C 7,2 °C 81 % 1015,5 hPa 0,0 l/m² 2 min 0 min 159 W/m² 19,3 km/h (3 Bft) 100,00 %
18.12.2025 14:06 12,2 °C 11,7 °C 7,2 °C 81 % 1015,5 hPa 0,0 l/m² 2 min 0 min 179 W/m² 35,4 km/h (5 Bft) 100,00 %
18.12.2025 14:08 12,2 °C 12,2 °C 7,2 °C 81 % 1015,5 hPa 0,0 l/m² 2 min 0 min 186 W/m² 19,3 km/h (3 Bft) 100,00 %
18.12.2025 14:10 12,2 °C 11,7 °C 7,2 °C 81 % 1015,4 hPa 0,0 l/m² 0 min 0 min 109 W/m² 19,3 km/h (3 Bft) 94,59 %
18.12.2025 14:12 12,2 °C 11,7 °C 7,2 °C 81 % 1015,4 hPa 0,0 l/m² 0 min 0 min 108 W/m² 19,3 km/h (3 Bft) 100,00 %
18.12.2025 14:14 12,2 °C 11,7 °C 7,2 °C 81 % 1015,3 hPa 0,0 l/m² 2 min 0 min 123 W/m² 19,3 km/h (3 Bft) 100,00 %
18.12.2025 14:16 12,2 °C 11,7 °C 7,2 °C 82 % 1015,3 hPa 0,0 l/m² 2 min 0 min 149 W/m² 32,2 km/h (5 Bft) 100,00 %
18.12.2025 14:18 12,1 °C 11,7 °C 7,2 °C 82 % 1015,4 hPa 0,0 l/m² 2 min 0 min 166 W/m² 32,2 km/h (5 Bft) 100,00 %
18.12.2025 14:21 12,1 °C 11,7 °C 7,2 °C 82 % 1015,4 hPa 0,0 l/m² 3 min 0 min 156 W/m² 19,3 km/h (3 Bft) 100,00 %
18.12.2025 14:22 12,1 °C 11,7 °C 7,2 °C 82 % 1015,4 hPa 0,0 l/m² 1 min 0 min 161 W/m² 16,1 km/h (3 Bft) 100,00 %
18.12.2025 14:26 12,1 °C 11,7 °C 7,2 °C 82 % 1015,4 hPa 0,0 l/m² 4 min 0 min 143 W/m² 32,2 km/h (5 Bft) 100,00 %
18.12.2025 14:28 12,1 °C 11,7 °C 7,2 °C 82 % 1015,4 hPa 0,0 l/m² 2 min 0 min 151 W/m² 35,4 km/h (5 Bft) 100,00 %
18.12.2025 14:30 12,1 °C 11,7 °C 7,2 °C 82 % 1015,4 hPa 0,0 l/m² 2 min 0 min 150 W/m² 25,7 km/h (4 Bft) 100,00 %
18.12.2025 14:32 12,1 °C 11,7 °C 7,2 °C 82 % 1015,4 hPa 0,0 l/m² 2 min 0 min 145 W/m² 22,5 km/h (4 Bft) 100,00 %
18.12.2025 14:34 12,1 °C 12,2 °C 7,2 °C 82 % 1015,3 hPa 0,0 l/m² 2 min 0 min 136 W/m² 22,5 km/h (4 Bft) 100,00 %
18.12.2025 14:36 12,1 °C 12,2 °C 7,2 °C 82 % 1015,3 hPa 0,0 l/m² 2 min 0 min 133 W/m² 19,3 km/h (3 Bft) 100,00 %
18.12.2025 14:38 12,1 °C 11,7 °C 7,2 °C 82 % 1015,2 hPa 0,0 l/m² 2 min 0 min 127 W/m² 25,7 km/h (4 Bft) 100,00 %
18.12.2025 14:40 12,0 °C 11,7 °C 7,2 °C 82 % 1015,2 hPa 0,0 l/m² 2 min 0 min 110 W/m² 29,0 km/h (5 Bft) 100,00 %
18.12.2025 14:42 12,0 °C 11,7 °C 6,7 °C 82 % 1015,1 hPa 0,0 l/m² 2 min 0 min 115 W/m² 25,7 km/h (4 Bft) 100,00 %
18.12.2025 14:44 11,9 °C 11,1 °C 6,7 °C 82 % 1015,1 hPa 0,0 l/m² 2 min 0 min 113 W/m² 25,7 km/h (4 Bft) 97,44 %
18.12.2025 14:46 11,9 °C 11,1 °C 6,7 °C 82 % 1015,1 hPa 0,0 l/m² 2 min 0 min 105 W/m² 22,5 km/h (4 Bft) 95,74 %
18.12.2025 14:48 11,9 °C 11,1 °C 6,7 °C 82 % 1015,1 hPa 0,0 l/m² 2 min 0 min 103 W/m² 32,2 km/h (5 Bft) 100,00 %
18.12.2025 14:50 11,8 °C 11,1 °C 6,7 °C 82 % 1015,1 hPa 0,0 l/m² 2 min 0 min 94 W/m² 22,5 km/h (4 Bft) 97,87 %
18.12.2025 14:52 11,8 °C 11,1 °C 6,7 °C 82 % 1015,1 hPa 0,0 l/m² 2 min 0 min 94 W/m² 25,7 km/h (4 Bft) 100,00 %
18.12.2025 14:54 11,8 °C 11,1 °C 6,7 °C 83 % 1015,1 hPa 0,0 l/m² 2 min 0 min 95 W/m² 25,7 km/h (4 Bft) 100,00 %
18.12.2025 14:56 11,8 °C 11,1 °C 6,7 °C 83 % 1015,0 hPa 0,0 l/m² 2 min 0 min 96 W/m² 19,3 km/h (3 Bft) 97,92 %
18.12.2025 14:58 11,7 °C 11,1 °C 6,7 °C 83 % 1015,1 hPa 0,0 l/m² 2 min 0 min 95 W/m² 25,7 km/h (4 Bft) 100,00 %
18.12.2025 15:00 11,7 °C 11,1 °C 6,7 °C 83 % 1015,1 hPa 0,0 l/m² 2 min 0 min 86 W/m² 38,6 km/h (5 Bft) 100,00 %
18.12.2025 15:02 11,7 °C 11,1 °C 6,7 °C 83 % 1015,0 hPa 0,0 l/m² 0 min 0 min 73 W/m² 25,7 km/h (4 Bft) 98,18 %
18.12.2025 15:04 11,6 °C 11,1 °C 6,7 °C 83 % 1015,1 hPa 0,0 l/m² 0 min 0 min 57 W/m² 29,0 km/h (5 Bft) 97,87 %
18.12.2025 15:06 11,6 °C 11,1 °C 6,7 °C 83 % 1014,9 hPa 0,0 l/m² 0 min 0 min 51 W/m² 35,4 km/h (5 Bft) 97,50 %
18.12.2025 15:08 11,6 °C 10,6 °C 6,7 °C 83 % 1015,0 hPa 0,0 l/m² 0 min 0 min 58 W/m² 25,7 km/h (4 Bft) 97,87 %
18.12.2025 15:10 11,5 °C 10,6 °C 6,7 °C 83 % 1015,0 hPa 0,0 l/m² 0 min 0 min 70 W/m² 19,3 km/h (3 Bft) 97,83 %
18.12.2025 15:12 11,5 °C 10,6 °C 6,7 °C 83 % 1014,9 hPa 0,0 l/m² 0 min 0 min 64 W/m² 19,3 km/h (3 Bft) 97,92 %
18.12.2025 15:14 11,4 °C 10,6 °C 6,7 °C 83 % 1014,8 hPa 0,0 l/m² 0 min 0 min 53 W/m² 25,7 km/h (4 Bft) 97,87 %
18.12.2025 15:16 11,4 °C 10,6 °C 6,7 °C 83 % 1014,8 hPa 0,0 l/m² 0 min 0 min 48 W/m² 38,6 km/h (5 Bft) 97,83 %
18.12.2025 15:18 11,4 °C 10,6 °C 6,7 °C 83 % 1014,8 hPa 0,0 l/m² 0 min 0 min 45 W/m² 25,7 km/h (4 Bft) 95,74 %
18.12.2025 15:20 11,4 °C 10,6 °C 6,7 °C 83 % 1014,8 hPa 0,0 l/m² 0 min 0 min 42 W/m² 22,5 km/h (4 Bft) 97,73 %
18.12.2025 15:22 11,3 °C 10,6 °C 6,7 °C 84 % 1014,8 hPa 0,0 l/m² 0 min 0 min 40 W/m² 29,0 km/h (5 Bft) 97,96 %
18.12.2025 15:24 11,3 °C 10,6 °C 6,7 °C 84 % 1014,7 hPa 0,0 l/m² 0 min 0 min 39 W/m² 29,0 km/h (5 Bft) 93,75 %
18.12.2025 15:28 11,3 °C 10,6 °C 6,7 °C 84 % 1014,7 hPa 0,0 l/m² 0 min 0 min 39 W/m² 19,3 km/h (3 Bft) 96,63 %
18.12.2025 15:30 11,3 °C 10,6 °C 6,7 °C 84 % 1014,7 hPa 0,0 l/m² 0 min 0 min 39 W/m² 19,3 km/h (3 Bft) 98,04 %
18.12.2025 15:32 11,2 °C 10,6 °C 6,7 °C 84 % 1014,8 hPa 0,0 l/m² 0 min 0 min 39 W/m² 22,5 km/h (4 Bft) 97,78 %
18.12.2025 15:34 11,2 °C 10,6 °C 6,7 °C 84 % 1014,8 hPa 0,0 l/m² 0 min 0 min 39 W/m² 25,7 km/h (4 Bft) 91,84 %
18.12.2025 15:36 11,2 °C 10,6 °C 6,7 °C 84 % 1014,8 hPa 0,0 l/m² 0 min 0 min 38 W/m² 19,3 km/h (3 Bft) 93,48 %
18.12.2025 15:38 11,2 °C 10,6 °C 6,7 °C 84 % 1014,9 hPa 0,0 l/m² 0 min 0 min 37 W/m² 22,5 km/h (4 Bft) 98,15 %
18.12.2025 15:40 11,2 °C 10,6 °C 6,7 °C 84 % 1014,9 hPa 0,0 l/m² 0 min 0 min 35 W/m² 25,7 km/h (4 Bft) 97,50 %
18.12.2025 15:42 11,2 °C 10,6 °C 6,7 °C 84 % 1014,9 hPa 0,0 l/m² 0 min 0 min 35 W/m² 32,2 km/h (5 Bft) 97,78 %
18.12.2025 15:44 11,2 °C 10,6 °C 6,7 °C 84 % 1014,9 hPa 0,0 l/m² 0 min 0 min 34 W/m² 19,3 km/h (3 Bft) 97,96 %
18.12.2025 15:46 11,2 °C 10,6 °C 6,7 °C 84 % 1014,8 hPa 0,0 l/m² 0 min 0 min 33 W/m² 25,7 km/h (4 Bft) 97,87 %
18.12.2025 15:48 11,2 °C 10,6 °C 6,7 °C 84 % 1014,8 hPa 0,0 l/m² 0 min 0 min 31 W/m² 25,7 km/h (4 Bft) 97,67 %
18.12.2025 15:50 11,1 °C 10,6 °C 6,7 °C 84 % 1014,8 hPa 0,0 l/m² 0 min 0 min 30 W/m² 35,4 km/h (5 Bft) 94,00 %
18.12.2025 15:52 11,1 °C 10,6 °C 6,7 °C 84 % 1015,0 hPa 0,0 l/m² 0 min 0 min 27 W/m² 35,4 km/h (5 Bft) 95,74 %
18.12.2025 15:54 11,1 °C 10,6 °C 6,7 °C 84 % 1014,9 hPa 0,0 l/m² 0 min 0 min 25 W/m² 25,7 km/h (4 Bft) 97,78 %
18.12.2025 15:56 11,1 °C 10,6 °C 6,1 °C 84 % 1014,8 hPa 0,0 l/m² 0 min 0 min 23 W/m² 25,7 km/h (4 Bft) 97,96 %
18.12.2025 15:58 11,1 °C 10,6 °C 6,7 °C 84 % 1014,9 hPa 0,0 l/m² 0 min 0 min 22 W/m² 22,5 km/h (4 Bft) 95,74 %
18.12.2025 16:00 11,1 °C 10,6 °C 6,1 °C 85 % 1014,9 hPa 0,0 l/m² 0 min 0 min 20 W/m² 22,5 km/h (4 Bft) 93,18 %
18.12.2025 16:02 11,1 °C 10,6 °C 6,1 °C 85 % 1014,9 hPa 0,0 l/m² 0 min 0 min 18 W/m² 25,7 km/h (4 Bft) 94,00 %
18.12.2025 16:04 11,1 °C 10,6 °C 6,1 °C 85 % 1014,9 hPa 0,0 l/m² 0 min 0 min 17 W/m² 25,7 km/h (4 Bft) 95,74 %
18.12.2025 16:06 11,1 °C 10,0 °C 6,1 °C 85 % 1014,8 hPa 0,0 l/m² 0 min 0 min 15 W/m² 19,3 km/h (3 Bft) 93,88 %
18.12.2025 16:08 11,0 °C 10,0 °C 6,1 °C 85 % 1014,9 hPa 0,0 l/m² 0 min 0 min 13 W/m² 25,7 km/h (4 Bft) 91,43 %
18.12.2025 16:10 11,0 °C 10,0 °C 6,1 °C 85 % 1014,9 hPa 0,0 l/m² 0 min 0 min 11 W/m² 25,7 km/h (4 Bft) 93,62 %
18.12.2025 16:12 11,0 °C 10,0 °C 6,1 °C 85 % 1014,8 hPa 0,0 l/m² 0 min 0 min 11 W/m² 22,5 km/h (4 Bft) 94,92 %
18.12.2025 16:14 10,9 °C 10,0 °C 6,1 °C 85 % 1014,9 hPa 0,0 l/m² 0 min 0 min 9 W/m² 22,5 km/h (4 Bft) 95,35 %
18.12.2025 16:16 10,9 °C 10,0 °C 6,1 °C 85 % 1014,8 hPa 0,0 l/m² 0 min 0 min 7 W/m² 19,3 km/h (3 Bft) 96,00 %
18.12.2025 16:18 10,9 °C 10,0 °C 6,1 °C 85 % 1014,9 hPa 0,0 l/m² 0 min 0 min 7 W/m² 19,3 km/h (3 Bft) 95,65 %
18.12.2025 16:20 10,9 °C 10,0 °C 6,1 °C 85 % 1014,9 hPa 0,0 l/m² 0 min 0 min 5 W/m² 22,5 km/h (4 Bft) 94,44 %
18.12.2025 16:22 10,9 °C 10,0 °C 6,1 °C 85 % 1014,9 hPa 0,0 l/m² 0 min 0 min 5 W/m² 22,5 km/h (4 Bft) 96,61 %
18.12.2025 16:24 10,8 °C 10,0 °C 6,1 °C 85 % 1014,9 hPa 0,0 l/m² 0 min 0 min 2 W/m² 22,5 km/h (4 Bft) 97,67 %
18.12.2025 16:26 10,8 °C 10,0 °C 6,1 °C 85 % 1014,8 hPa 0,0 l/m² 0 min 0 min 0 W/m² 25,7 km/h (4 Bft) 98,00 %
18.12.2025 16:28 10,8 °C 10,0 °C 6,1 °C 85 % 1014,7 hPa 0,0 l/m² 0 min 0 min 0 W/m² 16,1 km/h (3 Bft) 95,65 %
18.12.2025 16:30 10,8 °C 10,0 °C 6,1 °C 85 % 1014,7 hPa 0,0 l/m² 0 min 0 min 0 W/m² 22,5 km/h (4 Bft) 97,22 %
18.12.2025 16:32 10,7 °C 10,0 °C 6,1 °C 85 % 1014,7 hPa 0,0 l/m² 0 min 0 min 0 W/m² 29,0 km/h (5 Bft) 98,31 %
18.12.2025 16:34 10,7 °C 10,0 °C 6,1 °C 85 % 1014,7 hPa 0,0 l/m² 0 min 0 min 0 W/m² 22,5 km/h (4 Bft) 97,67 %
18.12.2025 16:36 10,7 °C 10,0 °C 6,1 °C 86 % 1014,7 hPa 0,0 l/m² 0 min 0 min 0 W/m² 19,3 km/h (3 Bft) 98,04 %
18.12.2025 16:38 10,7 °C 9,4 °C 6,1 °C 85 % 1014,6 hPa 0,0 l/m² 0 min 0 min 0 W/m² 19,3 km/h (3 Bft) 97,78 %
18.12.2025 16:40 10,6 °C 9,4 °C 6,1 °C 85 % 1014,6 hPa 0,0 l/m² 0 min 0 min 0 W/m² 29,0 km/h (5 Bft) 97,67 %
18.12.2025 16:42 10,6 °C 10,0 °C 6,1 °C 85 % 1014,6 hPa 0,0 l/m² 0 min 0 min 0 W/m² 29,0 km/h (5 Bft) 98,08 %
18.12.2025 16:44 10,6 °C 9,4 °C 6,1 °C 86 % 1014,6 hPa 0,0 l/m² 0 min 0 min 0 W/m² 25,7 km/h (4 Bft) 100,00 %
18.12.2025 16:46 10,6 °C 10,0 °C 6,1 °C 86 % 1014,6 hPa 0,0 l/m² 0 min 0 min 0 W/m² 22,5 km/h (4 Bft) 100,00 %
18.12.2025 16:48 10,6 °C 10,0 °C 6,1 °C 86 % 1014,6 hPa 0,0 l/m² 0 min 0 min 0 W/m² 29,0 km/h (5 Bft) 100,00 %
18.12.2025 16:50 10,6 °C 10,0 °C 6,1 °C 86 % 1014,6 hPa 0,0 l/m² 0 min 0 min 0 W/m² 22,5 km/h (4 Bft) 97,62 %
18.12.2025 16:52 10,6 °C 9,4 °C 6,1 °C 86 % 1014,5 hPa 0,0 l/m² 0 min 0 min 0 W/m² 22,5 km/h (4 Bft) 100,00 %
18.12.2025 16:54 10,6 °C 10,0 °C 6,1 °C 86 % 1014,5 hPa 0,0 l/m² 0 min 0 min 0 W/m² 25,7 km/h (4 Bft) 100,00 %
18.12.2025 16:56 10,6 °C 9,4 °C 6,1 °C 86 % 1014,5 hPa 0,0 l/m² 0 min 0 min 0 W/m² 29,0 km/h (5 Bft) 97,37 %
18.12.2025 16:58 10,6 °C 9,4 °C 6,1 °C 86 % 1014,5 hPa 0,0 l/m² 0 min 0 min 0 W/m² 19,3 km/h (3 Bft) 98,31 %
18.12.2025 17:00 10,5 °C 9,4 °C 5,6 °C 86 % 1014,5 hPa 0,0 l/m² 0 min 0 min 0 W/m² 22,5 km/h (4 Bft) 95,35 %
18.12.2025 17:02 10,5 °C 9,4 °C 5,6 °C 86 % 1014,5 hPa 0,0 l/m² 0 min 0 min 0 W/m² 22,5 km/h (4 Bft) 97,44 %
18.12.2025 17:04 10,5 °C 9,4 °C 5,6 °C 86 % 1014,4 hPa 0,0 l/m² 0 min 0 min 0 W/m² 25,7 km/h (4 Bft) 98,33 %
18.12.2025 17:06 10,4 °C 9,4 °C 5,6 °C 86 % 1014,4 hPa 0,0 l/m² 0 min 0 min 0 W/m² 22,5 km/h (4 Bft) 79,55 %
18.12.2025 17:08 10,4 °C 9,4 °C 5,6 °C 86 % 1014,4 hPa 0,0 l/m² 0 min 0 min 0 W/m² 22,5 km/h (4 Bft) 69,77 %
18.12.2025 17:10 10,4 °C 9,4 °C 5,6 °C 86 % 1014,4 hPa 0,0 l/m² 0 min 0 min 0 W/m² 25,7 km/h (4 Bft) 97,50 %
18.12.2025 17:12 10,4 °C 9,4 °C 5,6 °C 86 % 1014,3 hPa 0,0 l/m² 0 min 0 min 0 W/m² 19,3 km/h (3 Bft) 98,28 %
18.12.2025 17:14 10,4 °C 9,4 °C 5,6 °C 86 % 1014,3 hPa 0,0 l/m² 0 min 0 min 0 W/m² 22,5 km/h (4 Bft) 97,78 %
18.12.2025 17:16 10,4 °C 9,4 °C 5,6 °C 86 % 1014,3 hPa 0,0 l/m² 0 min 0 min 0 W/m² 32,2 km/h (5 Bft) 97,30 %
18.12.2025 17:18 10,3 °C 9,4 °C 5,6 °C 86 % 1014,2 hPa 0,0 l/m² 0 min 0 min 0 W/m² 22,5 km/h (4 Bft) 98,31 %
18.12.2025 17:20 10,3 °C 9,4 °C 5,6 °C 86 % 1014,2 hPa 0,0 l/m² 0 min 0 min 0 W/m² 25,7 km/h (4 Bft) 95,35 %
18.12.2025 17:22 10,3 °C 9,4 °C 5,6 °C 86 % 1014,2 hPa 0,0 l/m² 0 min 0 min 0 W/m² 25,7 km/h (4 Bft) 97,44 %
18.12.2025 17:24 10,3 °C 9,4 °C 5,6 °C 86 % 1014,1 hPa 0,0 l/m² 0 min 0 min 0 W/m² 25,7 km/h (4 Bft) 98,28 %
18.12.2025 17:26 10,3 °C 9,4 °C 5,6 °C 87 % 1014,1 hPa 0,0 l/m² 0 min 0 min 0 W/m² 29,0 km/h (5 Bft) 97,67 %
18.12.2025 17:28 10,2 °C 9,4 °C 5,6 °C 87 % 1014,1 hPa 0,0 l/m² 0 min 0 min 0 W/m² 22,5 km/h (4 Bft) 94,87 %
18.12.2025 17:30 10,2 °C 9,4 °C 5,6 °C 87 % 1014,1 hPa 0,0 l/m² 0 min 0 min 0 W/m² 25,7 km/h (4 Bft) 94,92 %
18.12.2025 17:32 10,2 °C 9,4 °C 5,6 °C 87 % 1014,1 hPa 0,0 l/m² 0 min 0 min 0 W/m² 35,4 km/h (5 Bft) 100,00 %
18.12.2025 17:34 10,2 °C 9,4 °C 5,6 °C 87 % 1014,0 hPa 0,0 l/m² 0 min 0 min 0 W/m² 22,5 km/h (4 Bft) 100,00 %
18.12.2025 17:36 10,2 °C 9,4 °C 5,6 °C 87 % 1014,1 hPa 0,0 l/m² 0 min 0 min 0 W/m² 25,7 km/h (4 Bft) 100,00 %
18.12.2025 17:38 10,2 °C 9,4 °C 5,6 °C 87 % 1014,1 hPa 0,0 l/m² 0 min 0 min 0 W/m² 29,0 km/h (5 Bft) 100,00 %
18.12.2025 17:40 10,2 °C 9,4 °C 5,6 °C 87 % 1014,0 hPa 0,0 l/m² 0 min 0 min 0 W/m² 32,2 km/h (5 Bft) 100,00 %
18.12.2025 17:42 10,2 °C 9,4 °C 5,6 °C 87 % 1014,1 hPa 0,0 l/m² 0 min 0 min 0 W/m² 19,3 km/h (3 Bft) 100,00 %
18.12.2025 17:44 10,2 °C 9,4 °C 5,6 °C 87 % 1014,0 hPa 0,0 l/m² 0 min 0 min 0 W/m² 29,0 km/h (5 Bft) 100,00 %
18.12.2025 17:46 10,2 °C 9,4 °C 5,6 °C 87 % 1014,0 hPa 0,0 l/m² 0 min 0 min 0 W/m² 22,5 km/h (4 Bft) 100,00 %
18.12.2025 17:48 10,2 °C 9,4 °C 5,6 °C 87 % 1014,0 hPa 0,0 l/m² 0 min 0 min 0 W/m² 22,5 km/h (4 Bft) 100,00 %
18.12.2025 17:50 10,2 °C 9,4 °C 5,6 °C 87 % 1014,0 hPa 0,0 l/m² 0 min 0 min 0 W/m² 25,7 km/h (4 Bft) 100,00 %
18.12.2025 17:52 10,2 °C 9,4 °C 5,6 °C 87 % 1014,0 hPa 0,0 l/m² 0 min 0 min 0 W/m² 29,0 km/h (5 Bft) 100,00 %
18.12.2025 17:54 10,2 °C 9,4 °C 5,6 °C 87 % 1013,9 hPa 0,0 l/m² 0 min 0 min 0 W/m² 35,4 km/h (5 Bft) 100,00 %
18.12.2025 17:56 10,2 °C 9,4 °C 5,6 °C 87 % 1014,0 hPa 0,0 l/m² 0 min 0 min 0 W/m² 22,5 km/h (4 Bft) 100,00 %
18.12.2025 17:58 10,2 °C 9,4 °C 5,6 °C 87 % 1014,0 hPa 0,0 l/m² 0 min 0 min 0 W/m² 25,7 km/h (4 Bft) 100,00 %
18.12.2025 18:00 10,2 °C 9,4 °C 5,6 °C 87 % 1014,0 hPa 0,0 l/m² 0 min 0 min 0 W/m² 29,0 km/h (5 Bft) 100,00 %
18.12.2025 18:02 10,2 °C 9,4 °C 5,6 °C 87 % 1013,9 hPa 0,0 l/m² 0 min 0 min 0 W/m² 25,7 km/h (4 Bft) 93,48 %
18.12.2025 18:04 10,2 °C 9,4 °C 5,6 °C 87 % 1013,9 hPa 0,0 l/m² 0 min 0 min 0 W/m² 25,7 km/h (4 Bft) 98,31 %
18.12.2025 18:07 10,2 °C 9,4 °C 5,6 °C 87 % 1013,9 hPa 0,0 l/m² 0 min 0 min 0 W/m² 19,3 km/h (3 Bft) 97,22 %
18.12.2025 18:08 10,2 °C 9,4 °C 5,6 °C 87 % 1013,9 hPa 0,0 l/m² 0 min 0 min 0 W/m² 19,3 km/h (3 Bft) 100,00 %
18.12.2025 18:12 10,2 °C 9,4 °C 5,6 °C 87 % 1014,0 hPa 0,0 l/m² 0 min 0 min 0 W/m² 16,1 km/h (3 Bft) 100,00 %
18.12.2025 18:14 10,2 °C 9,4 °C 5,6 °C 87 % 1014,0 hPa 0,0 l/m² 0 min 0 min 0 W/m² 22,5 km/h (4 Bft) 100,00 %
18.12.2025 18:16 10,2 °C 9,4 °C 5,6 °C 87 % 1014,0 hPa 0,0 l/m² 0 min 0 min 0 W/m² 22,5 km/h (4 Bft) 100,00 %
18.12.2025 18:18 10,2 °C 9,4 °C 5,6 °C 87 % 1013,9 hPa 0,0 l/m² 0 min 0 min 0 W/m² 32,2 km/h (5 Bft) 97,50 %
18.12.2025 18:20 10,3 °C 9,4 °C 5,6 °C 87 % 1013,9 hPa 0,0 l/m² 0 min 0 min 0 W/m² 22,5 km/h (4 Bft) 96,55 %
18.12.2025 18:22 10,3 °C 9,4 °C 5,6 °C 87 % 1013,9 hPa 0,0 l/m² 0 min 0 min 0 W/m² 22,5 km/h (4 Bft) 100,00 %
18.12.2025 18:24 10,3 °C 9,4 °C 5,6 °C 87 % 1013,7 hPa 0,0 l/m² 0 min 0 min 0 W/m² 29,0 km/h (5 Bft) 100,00 %
18.12.2025 18:26 10,3 °C 9,4 °C 5,6 °C 87 % 1013,8 hPa 0,0 l/m² 0 min 0 min 0 W/m² 25,7 km/h (4 Bft) 95,65 %
18.12.2025 18:28 10,3 °C 9,4 °C 5,6 °C 87 % 1013,7 hPa 0,0 l/m² 0 min 0 min 0 W/m² 25,7 km/h (4 Bft) 95,83 %
18.12.2025 18:30 10,3 °C 9,4 °C 5,6 °C 87 % 1013,7 hPa 0,0 l/m² 0 min 0 min 0 W/m² 22,5 km/h (4 Bft) 97,73 %
18.12.2025 18:32 10,3 °C 9,4 °C 5,6 °C 87 % 1013,7 hPa 0,0 l/m² 0 min 0 min 0 W/m² 29,0 km/h (5 Bft) 96,08 %
18.12.2025 18:34 10,3 °C 9,4 °C 5,6 °C 87 % 1013,7 hPa 0,0 l/m² 0 min 0 min 0 W/m² 22,5 km/h (4 Bft) 97,87 %
18.12.2025 18:36 10,3 °C 9,4 °C 5,6 °C 87 % 1013,6 hPa 0,0 l/m² 0 min 0 min 0 W/m² 25,7 km/h (4 Bft) 93,33 %
18.12.2025 18:38 10,3 °C 9,4 °C 5,6 °C 87 % 1013,6 hPa 0,0 l/m² 0 min 0 min 0 W/m² 25,7 km/h (4 Bft) 95,45 %
18.12.2025 18:40 10,3 °C 9,4 °C 5,6 °C 87 % 1013,6 hPa 0,0 l/m² 0 min 0 min 0 W/m² 22,5 km/h (4 Bft) 96,08 %
18.12.2025 18:42 10,3 °C 9,4 °C 5,6 °C 87 % 1013,6 hPa 0,0 l/m² 0 min 0 min 0 W/m² 32,2 km/h (5 Bft) 93,62 %
18.12.2025 18:44 10,3 °C 9,4 °C 5,6 °C 87 % 1013,7 hPa 0,0 l/m² 0 min 0 min 0 W/m² 22,5 km/h (4 Bft) 93,48 %
18.12.2025 18:46 10,4 °C 9,4 °C 5,6 °C 87 % 1013,5 hPa 0,0 l/m² 0 min 0 min 0 W/m² 22,5 km/h (4 Bft) 93,33 %
18.12.2025 18:48 10,4 °C 9,4 °C 5,6 °C 87 % 1013,6 hPa 0,0 l/m² 0 min 0 min 0 W/m² 19,3 km/h (3 Bft) 96,36 %
18.12.2025 18:50 10,4 °C 9,4 °C 5,6 °C 87 % 1013,6 hPa 0,0 l/m² 0 min 0 min 0 W/m² 22,5 km/h (4 Bft) 92,68 %
18.12.2025 18:52 10,4 °C 9,4 °C 6,1 °C 87 % 1013,6 hPa 0,0 l/m² 0 min 0 min 0 W/m² 35,4 km/h (5 Bft) 91,49 %
18.12.2025 18:54 10,4 °C 9,4 °C 6,1 °C 87 % 1013,6 hPa 0,0 l/m² 0 min 0 min 0 W/m² 22,5 km/h (4 Bft) 47,22 %
18.12.2025 18:56 10,4 °C 9,4 °C 6,1 °C 87 % 1013,6 hPa 0,0 l/m² 0 min 0 min 0 W/m² 19,3 km/h (3 Bft) 92,11 %
18.12.2025 18:58 10,4 °C 9,4 °C 6,1 °C 87 % 1013,5 hPa 0,0 l/m² 0 min 0 min 0 W/m² 35,4 km/h (5 Bft) 91,38 %
18.12.2025 19:00 10,4 °C 9,4 °C 6,1 °C 87 % 1013,5 hPa 0,0 l/m² 0 min 0 min 0 W/m² 19,3 km/h (3 Bft) 93,62 %
18.12.2025 19:02 10,4 °C 9,4 °C 6,1 °C 87 % 1013,4 hPa 0,0 l/m² 0 min 0 min 0 W/m² 29,0 km/h (5 Bft) 92,11 %
18.12.2025 19:04 10,4 °C 9,4 °C 6,1 °C 87 % 1013,5 hPa 0,0 l/m² 0 min 0 min 0 W/m² 25,7 km/h (4 Bft) 87,50 %
18.12.2025 19:06 10,4 °C 9,4 °C 6,1 °C 87 % 1013,4 hPa 0,0 l/m² 0 min 0 min 0 W/m² 22,5 km/h (4 Bft) 90,74 %
18.12.2025 19:08 10,4 °C 9,4 °C 5,6 °C 87 % 1013,4 hPa 0,0 l/m² 0 min 0 min 0 W/m² 19,3 km/h (3 Bft) 92,68 %
18.12.2025 19:10 10,4 °C 9,4 °C 6,1 °C 87 % 1013,4 hPa 0,0 l/m² 0 min 0 min 0 W/m² 29,0 km/h (5 Bft) 91,49 %
18.12.2025 19:12 10,4 °C 9,4 °C 6,1 °C 87 % 1013,3 hPa 0,0 l/m² 0 min 0 min 0 W/m² 25,7 km/h (4 Bft) 95,65 %
18.12.2025 19:14 10,4 °C 10,0 °C 6,1 °C 87 % 1013,3 hPa 0,0 l/m² 0 min 0 min 0 W/m² 25,7 km/h (4 Bft) 96,55 %
18.12.2025 19:16 10,4 °C 10,0 °C 6,1 °C 87 % 1013,4 hPa 0,0 l/m² 0 min 0 min 0 W/m² 25,7 km/h (4 Bft) 95,35 %
18.12.2025 19:18 10,4 °C 9,4 °C 6,1 °C 87 % 1013,3 hPa 0,0 l/m² 0 min 0 min 0 W/m² 35,4 km/h (5 Bft) 91,49 %
18.12.2025 19:20 10,4 °C 9,4 °C 6,1 °C 87 % 1013,3 hPa 0,0 l/m² 0 min 0 min 0 W/m² 22,5 km/h (4 Bft) 95,00 %
18.12.2025 19:22 10,4 °C 9,4 °C 6,1 °C 87 % 1013,3 hPa 0,0 l/m² 0 min 0 min 0 W/m² 22,5 km/h (4 Bft) 94,55 %
18.12.2025 19:24 10,4 °C 9,4 °C 6,1 °C 87 % 1013,3 hPa 0,0 l/m² 0 min 0 min 0 W/m² 32,2 km/h (5 Bft) 94,74 %
18.12.2025 19:26 10,4 °C 9,4 °C 6,1 °C 87 % 1013,3 hPa 0,0 l/m² 0 min 0 min 0 W/m² 25,7 km/h (4 Bft) 95,74 %
18.12.2025 19:28 10,4 °C 9,4 °C 6,1 °C 87 % 1013,3 hPa 0,0 l/m² 0 min 0 min 0 W/m² 22,5 km/h (4 Bft) 93,62 %
18.12.2025 19:30 10,4 °C 9,4 °C 6,1 °C 87 % 1013,3 hPa 0,0 l/m² 0 min 0 min 0 W/m² 25,7 km/h (4 Bft) 100,00 %
18.12.2025 19:32 10,4 °C 9,4 °C 6,1 °C 87 % 1013,3 hPa 0,0 l/m² 0 min 0 min 0 W/m² 22,5 km/h (4 Bft) 100,00 %
18.12.2025 19:34 10,4 °C 9,4 °C 6,1 °C 87 % 1013,3 hPa 0,0 l/m² 0 min 0 min 0 W/m² 22,5 km/h (4 Bft) 97,83 %
18.12.2025 19:36 10,4 °C 9,4 °C 6,1 °C 87 % 1013,3 hPa 0,0 l/m² 0 min 0 min 0 W/m² 29,0 km/h (5 Bft) 100,00 %
18.12.2025 19:38 10,4 °C 9,4 °C 5,6 °C 87 % 1013,2 hPa 0,0 l/m² 0 min 0 min 0 W/m² 29,0 km/h (5 Bft) 100,00 %
18.12.2025 19:40 10,4 °C 9,4 °C 5,6 °C 87 % 1013,3 hPa 0,0 l/m² 0 min 0 min 0 W/m² 25,7 km/h (4 Bft) 97,50 %
18.12.2025 19:42 10,4 °C 9,4 °C 5,6 °C 87 % 1013,2 hPa 0,0 l/m² 0 min 0 min 0 W/m² 22,5 km/h (4 Bft) 100,00 %
18.12.2025 19:44 10,4 °C 9,4 °C 5,6 °C 87 % 1013,2 hPa 0,0 l/m² 0 min 0 min 0 W/m² 25,7 km/h (4 Bft) 100,00 %
18.12.2025 19:46 10,4 °C 9,4 °C 5,6 °C 87 % 1013,2 hPa 0,0 l/m² 0 min 0 min 0 W/m² 22,5 km/h (4 Bft) 100,00 %
18.12.2025 19:48 10,4 °C 9,4 °C 5,6 °C 87 % 1013,3 hPa 0,0 l/m² 0 min 0 min 0 W/m² 29,0 km/h (5 Bft) 100,00 %
18.12.2025 19:50 10,4 °C 9,4 °C 5,6 °C 87 % 1013,2 hPa 0,0 l/m² 0 min 0 min 0 W/m² 32,2 km/h (5 Bft) 100,00 %
18.12.2025 19:52 10,4 °C 9,4 °C 5,6 °C 87 % 1013,2 hPa 0,0 l/m² 0 min 0 min 0 W/m² 22,5 km/h (4 Bft) 100,00 %
18.12.2025 19:54 10,3 °C 9,4 °C 5,6 °C 87 % 1013,1 hPa 0,0 l/m² 0 min 0 min 0 W/m² 25,7 km/h (4 Bft) 98,31 %
18.12.2025 19:56 10,3 °C 9,4 °C 5,6 °C 87 % 1013,1 hPa 0,0 l/m² 0 min 0 min 0 W/m² 29,0 km/h (5 Bft) 100,00 %
18.12.2025 19:58 10,3 °C 9,4 °C 5,6 °C 87 % 1013,1 hPa 0,0 l/m² 0 min 0 min 0 W/m² 29,0 km/h (5 Bft) 97,67 %
18.12.2025 20:00 10,3 °C 9,4 °C 5,6 °C 87 % 1013,1 hPa 0,0 l/m² 0 min 0 min 0 W/m² 25,7 km/h (4 Bft) 98,08 %
18.12.2025 20:02 10,3 °C 9,4 °C 5,6 °C 87 % 1013,1 hPa 0,0 l/m² 0 min 0 min 0 W/m² 22,5 km/h (4 Bft) 97,87 %
18.12.2025 20:04 10,3 °C 9,4 °C 5,6 °C 87 % 1013,1 hPa 0,0 l/m² 0 min 0 min 0 W/m² 25,7 km/h (4 Bft) 100,00 %
18.12.2025 20:07 10,3 °C 9,4 °C 5,6 °C 87 % 1013,0 hPa 0,0 l/m² 0 min 0 min 0 W/m² 29,0 km/h (5 Bft) 98,68 %
18.12.2025 20:08 10,3 °C 9,4 °C 5,6 °C 87 % 1013,1 hPa 0,0 l/m² 0 min 0 min 0 W/m² 22,5 km/h (4 Bft) 100,00 %
18.12.2025 20:10 10,3 °C 9,4 °C 5,6 °C 87 % 1013,0 hPa 0,0 l/m² 0 min 0 min 0 W/m² 38,6 km/h (5 Bft) 100,00 %
18.12.2025 20:12 10,3 °C 9,4 °C 5,6 °C 87 % 1013,0 hPa 0,0 l/m² 0 min 0 min 0 W/m² 32,2 km/h (5 Bft) 100,00 %
18.12.2025 20:14 10,3 °C 9,4 °C 5,6 °C 87 % 1013,1 hPa 0,0 l/m² 0 min 0 min 0 W/m² 22,5 km/h (4 Bft) 97,50 %
18.12.2025 20:16 10,3 °C 9,4 °C 5,6 °C 87 % 1013,1 hPa 0,0 l/m² 0 min 0 min 0 W/m² 32,2 km/h (5 Bft) 97,87 %
18.12.2025 20:18 10,3 °C 9,4 °C 5,6 °C 87 % 1013,1 hPa 0,0 l/m² 0 min 0 min 0 W/m² 22,5 km/h (4 Bft) 100,00 %
18.12.2025 20:20 10,2 °C 9,4 °C 5,6 °C 87 % 1013,1 hPa 0,0 l/m² 0 min 0 min 0 W/m² 22,5 km/h (4 Bft) 100,00 %
18.12.2025 20:22 10,2 °C 9,4 °C 5,6 °C 87 % 1013,0 hPa 0,0 l/m² 0 min 0 min 0 W/m² 22,5 km/h (4 Bft) 97,50 %
18.12.2025 20:24 10,2 °C 9,4 °C 5,6 °C 87 % 1013,1 hPa 0,0 l/m² 0 min 0 min 0 W/m² 29,0 km/h (5 Bft) 97,83 %
18.12.2025 20:26 10,2 °C 9,4 °C 5,6 °C 87 % 1013,1 hPa 0,0 l/m² 0 min 0 min 0 W/m² 19,3 km/h (3 Bft) 100,00 %
18.12.2025 20:28 10,2 °C 9,4 °C 5,6 °C 87 % 1013,1 hPa 0,0 l/m² 0 min 0 min 0 W/m² 22,5 km/h (4 Bft) 100,00 %
18.12.2025 20:30 10,1 °C 9,4 °C 5,6 °C 87 % 1013,1 hPa 0,0 l/m² 0 min 0 min 0 W/m² 29,0 km/h (5 Bft) 100,00 %
18.12.2025 20:32 10,1 °C 9,4 °C 5,6 °C 87 % 1013,1 hPa 0,0 l/m² 0 min 0 min 0 W/m² 19,3 km/h (3 Bft) 100,00 %
18.12.2025 20:34 10,1 °C 9,4 °C 5,6 °C 87 % 1013,1 hPa 0,0 l/m² 0 min 0 min 0 W/m² 22,5 km/h (4 Bft) 100,00 %
18.12.2025 20:36 10,1 °C 9,4 °C 5,6 °C 87 % 1013,2 hPa 0,0 l/m² 0 min 0 min 0 W/m² 19,3 km/h (3 Bft) 97,37 %
18.12.2025 20:38 10,1 °C 9,4 °C 5,6 °C 87 % 1013,1 hPa 0,0 l/m² 0 min 0 min 0 W/m² 19,3 km/h (3 Bft) 100,00 %
18.12.2025 20:40 10,1 °C 9,4 °C 5,6 °C 87 % 1013,1 hPa 0,0 l/m² 0 min 0 min 0 W/m² 25,7 km/h (4 Bft) 97,83 %
18.12.2025 20:42 10,1 °C 9,4 °C 5,6 °C 87 % 1013,2 hPa 0,0 l/m² 0 min 0 min 0 W/m² 16,1 km/h (3 Bft) 55,56 %
18.12.2025 20:44 10,1 °C 9,4 °C 5,6 °C 87 % 1013,2 hPa 0,0 l/m² 0 min 0 min 0 W/m² 22,5 km/h (4 Bft) 97,44 %
18.12.2025 20:46 10,0 °C 9,4 °C 5,6 °C 87 % 1013,2 hPa 0,0 l/m² 0 min 0 min 0 W/m² 32,2 km/h (5 Bft) 97,87 %
18.12.2025 20:48 10,0 °C 9,4 °C 5,6 °C 87 % 1013,2 hPa 0,0 l/m² 0 min 0 min 0 W/m² 19,3 km/h (3 Bft) 100,00 %
18.12.2025 20:50 10,0 °C 9,4 °C 5,6 °C 87 % 1013,3 hPa 0,0 l/m² 0 min 0 min 0 W/m² 25,7 km/h (4 Bft) 98,18 %
18.12.2025 20:52 10,1 °C 9,4 °C 5,6 °C 87 % 1013,2 hPa 0,0 l/m² 0 min 0 min 0 W/m² 25,7 km/h (4 Bft) 95,74 %
18.12.2025 20:54 10,0 °C 9,4 °C 5,6 °C 87 % 1013,2 hPa 0,0 l/m² 0 min 0 min 0 W/m² 19,3 km/h (3 Bft) 95,12 %
18.12.2025 20:56 10,0 °C 9,4 °C 5,6 °C 87 % 1013,2 hPa 0,0 l/m² 0 min 0 min 0 W/m² 29,0 km/h (5 Bft) 95,65 %
18.12.2025 20:58 10,1 °C 9,4 °C 5,6 °C 87 % 1013,2 hPa 0,0 l/m² 0 min 0 min 0 W/m² 16,1 km/h (3 Bft) 98,18 %
18.12.2025 21:00 10,0 °C 9,4 °C 5,6 °C 87 % 1013,2 hPa 0,0 l/m² 0 min 0 min 0 W/m² 19,3 km/h (3 Bft) 97,44 %
18.12.2025 21:02 10,0 °C 9,4 °C 5,6 °C 87 % 1013,2 hPa 0,0 l/m² 0 min 0 min 0 W/m² 29,0 km/h (5 Bft) 93,62 %
18.12.2025 21:04 10,0 °C 9,4 °C 5,6 °C 87 % 1013,3 hPa 0,0 l/m² 0 min 0 min 0 W/m² 25,7 km/h (4 Bft) 98,21 %
18.12.2025 21:07 10,0 °C 8,9 °C 5,6 °C 87 % 1013,3 hPa 0,0 l/m² 0 min 0 min 0 W/m² 22,5 km/h (4 Bft) 97,26 %
18.12.2025 21:08 10,0 °C 8,9 °C 5,6 °C 87 % 1013,3 hPa 0,0 l/m² 0 min 0 min 0 W/m² 22,5 km/h (4 Bft) 96,95 %
18.12.2025 21:12 10,0 °C 9,4 °C 5,6 °C 87 % 1013,3 hPa 0,0 l/m² 0 min 0 min 0 W/m² 22,5 km/h (4 Bft) 94,00 %
18.12.2025 21:14 10,0 °C 9,4 °C 5,6 °C 87 % 1013,2 hPa 0,0 l/m² 0 min 0 min 0 W/m² 25,7 km/h (4 Bft) 97,87 %
18.12.2025 21:16 10,0 °C 9,4 °C 5,6 °C 87 % 1013,2 hPa 0,0 l/m² 0 min 0 min 0 W/m² 22,5 km/h (4 Bft) 93,62 %
18.12.2025 21:18 10,0 °C 8,9 °C 5,6 °C 87 % 1013,2 hPa 0,0 l/m² 0 min 0 min 0 W/m² 22,5 km/h (4 Bft) 95,65 %
18.12.2025 21:20 9,9 °C 8,9 °C 5,6 °C 87 % 1013,2 hPa 0,0 l/m² 0 min 0 min 0 W/m² 22,5 km/h (4 Bft) 95,56 %
18.12.2025 21:22 9,9 °C 8,9 °C 5,0 °C 87 % 1013,2 hPa 0,0 l/m² 0 min 0 min 0 W/m² 19,3 km/h (3 Bft) 88,46 %
18.12.2025 21:24 9,9 °C 8,9 °C 5,0 °C 87 % 1013,2 hPa 0,0 l/m² 0 min 0 min 0 W/m² 25,7 km/h (4 Bft) 100,00 %
18.12.2025 21:26 9,9 °C 8,9 °C 5,6 °C 87 % 1013,2 hPa 0,0 l/m² 0 min 0 min 0 W/m² 29,0 km/h (5 Bft) 94,92 %
18.12.2025 21:28 9,9 °C 8,9 °C 5,6 °C 87 % 1013,2 hPa 0,0 l/m² 0 min 0 min 0 W/m² 25,7 km/h (4 Bft) 95,74 %
18.12.2025 21:30 9,9 °C 8,9 °C 5,6 °C 87 % 1013,2 hPa 0,0 l/m² 0 min 0 min 0 W/m² 22,5 km/h (4 Bft) 93,33 %
18.12.2025 21:32 9,9 °C 8,9 °C 5,0 °C 87 % 1013,2 hPa 0,0 l/m² 0 min 0 min 0 W/m² 22,5 km/h (4 Bft) 93,33 %
18.12.2025 21:34 9,9 °C 8,9 °C 5,0 °C 87 % 1013,3 hPa 0,0 l/m² 0 min 0 min 0 W/m² 25,7 km/h (4 Bft) 95,56 %
18.12.2025 21:36 9,9 °C 8,9 °C 5,0 °C 87 % 1013,2 hPa 0,0 l/m² 0 min 0 min 0 W/m² 19,3 km/h (3 Bft) 95,00 %
18.12.2025 21:38 9,8 °C 8,9 °C 5,0 °C 87 % 1013,3 hPa 0,0 l/m² 0 min 0 min 0 W/m² 25,7 km/h (4 Bft) 93,22 %
18.12.2025 21:40 9,8 °C 8,9 °C 5,0 °C 88 % 1013,3 hPa 0,0 l/m² 0 min 0 min 0 W/m² 22,5 km/h (4 Bft) 95,65 %
18.12.2025 21:42 9,8 °C 8,9 °C 5,0 °C 88 % 1013,3 hPa 0,0 l/m² 0 min 0 min 0 W/m² 22,5 km/h (4 Bft) 95,74 %
18.12.2025 21:44 9,8 °C 8,9 °C 5,0 °C 88 % 1013,2 hPa 0,0 l/m² 0 min 0 min 0 W/m² 22,5 km/h (4 Bft) 95,74 %
18.12.2025 21:46 9,8 °C 8,9 °C 5,0 °C 88 % 1013,3 hPa 0,0 l/m² 0 min 0 min 0 W/m² 22,5 km/h (4 Bft) 93,48 %
18.12.2025 21:48 9,8 °C 8,9 °C 5,0 °C 87 % 1013,3 hPa 0,0 l/m² 0 min 0 min 0 W/m² 29,0 km/h (5 Bft) 95,45 %
18.12.2025 21:50 9,8 °C 8,9 °C 5,6 °C 88 % 1013,4 hPa 0,0 l/m² 0 min 0 min 0 W/m² 32,2 km/h (5 Bft) 95,65 %
18.12.2025 21:52 9,8 °C 8,9 °C 5,6 °C 88 % 1013,4 hPa 0,0 l/m² 0 min 0 min 0 W/m² 32,2 km/h (5 Bft) 94,23 %
18.12.2025 21:54 9,8 °C 8,9 °C 5,6 °C 88 % 1013,4 hPa 0,0 l/m² 0 min 0 min 0 W/m² 29,0 km/h (5 Bft) 95,65 %
18.12.2025 21:56 9,8 °C 8,9 °C 5,6 °C 88 % 1013,4 hPa 0,0 l/m² 0 min 0 min 0 W/m² 22,5 km/h (4 Bft) 93,48 %
18.12.2025 21:58 9,8 °C 8,9 °C 5,6 °C 88 % 1013,4 hPa 0,0 l/m² 0 min 0 min 0 W/m² 29,0 km/h (5 Bft) 94,87 %
18.12.2025 22:00 9,8 °C 8,9 °C 5,6 °C 87 % 1013,4 hPa 0,0 l/m² 0 min 0 min 0 W/m² 22,5 km/h (4 Bft) 95,74 %
18.12.2025 22:02 9,8 °C 8,9 °C 5,0 °C 87 % 1013,4 hPa 0,0 l/m² 0 min 0 min 0 W/m² 19,3 km/h (3 Bft) 91,49 %
18.12.2025 22:04 9,8 °C 8,9 °C 5,0 °C 87 % 1013,4 hPa 0,0 l/m² 0 min 0 min 0 W/m² 35,4 km/h (5 Bft) 95,92 %
18.12.2025 22:06 9,8 °C 8,9 °C 5,0 °C 87 % 1013,5 hPa 0,0 l/m² 0 min 0 min 0 W/m² 22,5 km/h (4 Bft) 98,28 %
18.12.2025 22:08 9,8 °C 8,9 °C 5,0 °C 88 % 1013,5 hPa 0,0 l/m² 0 min 0 min 0 W/m² 19,3 km/h (3 Bft) 97,14 %
18.12.2025 22:10 9,8 °C 8,9 °C 5,0 °C 88 % 1013,6 hPa 0,0 l/m² 0 min 0 min 0 W/m² 25,7 km/h (4 Bft) 97,87 %
18.12.2025 22:12 9,8 °C 8,9 °C 5,0 °C 88 % 1013,6 hPa 0,0 l/m² 0 min 0 min 0 W/m² 25,7 km/h (4 Bft) 100,00 %
18.12.2025 22:14 9,8 °C 8,9 °C 5,0 °C 88 % 1013,6 hPa 0,0 l/m² 0 min 0 min 0 W/m² 16,1 km/h (3 Bft) 100,00 %
18.12.2025 22:16 9,8 °C 8,9 °C 5,0 °C 88 % 1013,7 hPa 0,0 l/m² 0 min 0 min 0 W/m² 19,3 km/h (3 Bft) 100,00 %
18.12.2025 22:18 9,8 °C 8,9 °C 5,0 °C 88 % 1013,7 hPa 0,0 l/m² 0 min 0 min 0 W/m² 19,3 km/h (3 Bft) 97,37 %
18.12.2025 22:20 9,8 °C 8,9 °C 5,0 °C 88 % 1013,7 hPa 0,0 l/m² 0 min 0 min 0 W/m² 29,0 km/h (5 Bft) 100,00 %
18.12.2025 22:22 9,8 °C 8,9 °C 5,0 °C 88 % 1013,7 hPa 0,0 l/m² 0 min 0 min 0 W/m² 22,5 km/h (4 Bft) 57,78 %
18.12.2025 22:24 9,8 °C 8,9 °C 5,0 °C 88 % 1013,7 hPa 0,0 l/m² 0 min 0 min 0 W/m² 25,7 km/h (4 Bft) 83,33 %
18.12.2025 22:26 9,8 °C 8,9 °C 5,0 °C 88 % 1013,7 hPa 0,0 l/m² 0 min 0 min 0 W/m² 25,7 km/h (4 Bft) 97,87 %
18.12.2025 22:28 9,8 °C 8,9 °C 5,0 °C 88 % 1013,7 hPa 0,0 l/m² 0 min 0 min 0 W/m² 19,3 km/h (3 Bft) 100,00 %
18.12.2025 22:30 9,8 °C 8,9 °C 5,0 °C 88 % 1013,7 hPa 0,0 l/m² 0 min 0 min 0 W/m² 16,1 km/h (3 Bft) 100,00 %
18.12.2025 22:32 9,7 °C 8,9 °C 5,0 °C 88 % 1013,6 hPa 0,0 l/m² 0 min 0 min 0 W/m² 22,5 km/h (4 Bft) 100,00 %
18.12.2025 22:34 9,7 °C 8,9 °C 5,0 °C 88 % 1013,5 hPa 0,0 l/m² 0 min 0 min 0 W/m² 16,1 km/h (3 Bft) 98,28 %
18.12.2025 22:36 9,7 °C 8,9 °C 5,0 °C 88 % 1013,5 hPa 0,0 l/m² 0 min 0 min 0 W/m² 16,1 km/h (3 Bft) 100,00 %
18.12.2025 22:38 9,7 °C 8,9 °C 5,0 °C 88 % 1013,6 hPa 0,0 l/m² 0 min 0 min 0 W/m² 16,1 km/h (3 Bft) 100,00 %
18.12.2025 22:40 9,7 °C 8,9 °C 5,0 °C 88 % 1013,6 hPa 0,0 l/m² 0 min 0 min 0 W/m² 19,3 km/h (3 Bft) 100,00 %
18.12.2025 22:42 9,7 °C 8,9 °C 5,0 °C 88 % 1013,6 hPa 0,0 l/m² 0 min 0 min 0 W/m² 29,0 km/h (5 Bft) 97,78 %
18.12.2025 22:44 9,7 °C 8,9 °C 5,0 °C 88 % 1013,5 hPa 0,0 l/m² 0 min 0 min 0 W/m² 22,5 km/h (4 Bft) 96,30 %
18.12.2025 22:46 9,7 °C 8,9 °C 5,0 °C 88 % 1013,6 hPa 0,0 l/m² 0 min 0 min 0 W/m² 19,3 km/h (3 Bft) 97,56 %
18.12.2025 22:48 9,7 °C 8,9 °C 5,0 °C 88 % 1013,5 hPa 0,0 l/m² 0 min 0 min 0 W/m² 22,5 km/h (4 Bft) 95,74 %
18.12.2025 22:50 9,7 °C 8,9 °C 5,0 °C 88 % 1013,5 hPa 0,0 l/m² 0 min 0 min 0 W/m² 19,3 km/h (3 Bft) 97,87 %
18.12.2025 22:52 9,6 °C 8,9 °C 5,0 °C 88 % 1013,5 hPa 0,0 l/m² 0 min 0 min 0 W/m² 19,3 km/h (3 Bft) 98,11 %
18.12.2025 22:54 9,6 °C 8,9 °C 5,0 °C 88 % 1013,5 hPa 0,0 l/m² 0 min 0 min 0 W/m² 19,3 km/h (3 Bft) 97,50 %
18.12.2025 22:56 9,6 °C 8,9 °C 5,0 °C 88 % 1013,5 hPa 0,0 l/m² 0 min 0 min 0 W/m² 25,7 km/h (4 Bft) 97,87 %
18.12.2025 22:58 9,6 °C 8,9 °C 5,0 °C 88 % 1013,4 hPa 0,0 l/m² 0 min 0 min 0 W/m² 19,3 km/h (3 Bft) 97,78 %
18.12.2025 23:00 9,6 °C 8,9 °C 5,0 °C 88 % 1013,6 hPa 0,0 l/m² 0 min 0 min 0 W/m² 22,5 km/h (4 Bft) 97,96 %
18.12.2025 23:02 9,6 °C 8,9 °C 5,0 °C 88 % 1013,5 hPa 0,0 l/m² 0 min 0 min 0 W/m² 19,3 km/h (3 Bft) 97,87 %
18.12.2025 23:04 9,6 °C 8,9 °C 5,0 °C 88 % 1013,5 hPa 0,0 l/m² 0 min 0 min 0 W/m² 16,1 km/h (3 Bft) 97,96 %
18.12.2025 23:06 9,6 °C 8,9 °C 5,0 °C 88 % 1013,5 hPa 0,0 l/m² 0 min 0 min 0 W/m² 12,9 km/h (3 Bft) 98,00 %
18.12.2025 23:08 9,6 °C 8,9 °C 5,0 °C 88 % 1013,6 hPa 0,0 l/m² 0 min 0 min 0 W/m² 12,9 km/h (3 Bft) 97,78 %
18.12.2025 23:10 9,6 °C 8,9 °C 5,0 °C 88 % 1013,6 hPa 0,0 l/m² 0 min 0 min 0 W/m² 12,9 km/h (3 Bft) 97,96 %
18.12.2025 23:12 9,6 °C 8,9 °C 5,0 °C 88 % 1013,6 hPa 0,0 l/m² 0 min 0 min 0 W/m² 19,3 km/h (3 Bft) 97,78 %
18.12.2025 23:14 9,6 °C 8,9 °C 5,0 °C 89 % 1013,5 hPa 0,0 l/m² 0 min 0 min 0 W/m² 32,2 km/h (5 Bft) 100,00 %
18.12.2025 23:16 9,6 °C 8,9 °C 5,0 °C 89 % 1013,5 hPa 0,0 l/m² 0 min 0 min 0 W/m² 22,5 km/h (4 Bft) 100,00 %
18.12.2025 23:18 9,6 °C 8,9 °C 5,0 °C 89 % 1013,4 hPa 0,0 l/m² 0 min 0 min 0 W/m² 32,2 km/h (5 Bft) 97,83 %
18.12.2025 23:20 9,6 °C 8,9 °C 5,0 °C 89 % 1013,4 hPa 0,0 l/m² 0 min 0 min 0 W/m² 22,5 km/h (4 Bft) 97,78 %
18.12.2025 23:22 9,6 °C 8,9 °C 5,0 °C 89 % 1013,4 hPa 0,0 l/m² 0 min 0 min 0 W/m² 19,3 km/h (3 Bft) 100,00 %
18.12.2025 23:24 9,6 °C 8,9 °C 5,0 °C 89 % 1013,4 hPa 0,0 l/m² 0 min 0 min 0 W/m² 22,5 km/h (4 Bft) 97,87 %
18.12.2025 23:26 9,6 °C 8,9 °C 5,0 °C 89 % 1013,5 hPa 0,0 l/m² 0 min 0 min 0 W/m² 35,4 km/h (5 Bft) 98,08 %
18.12.2025 23:28 9,7 °C 8,9 °C 5,0 °C 89 % 1013,5 hPa 0,0 l/m² 0 min 0 min 0 W/m² 29,0 km/h (5 Bft) 100,00 %
18.12.2025 23:30 9,7 °C 8,9 °C 5,0 °C 89 % 1013,4 hPa 0,0 l/m² 0 min 0 min 0 W/m² 19,3 km/h (3 Bft) 100,00 %
18.12.2025 23:32 9,7 °C 8,9 °C 5,0 °C 89 % 1013,4 hPa 0,0 l/m² 0 min 0 min 0 W/m² 19,3 km/h (3 Bft) 97,62 %
18.12.2025 23:34 9,7 °C 8,9 °C 5,0 °C 89 % 1013,4 hPa 0,0 l/m² 0 min 0 min 0 W/m² 22,5 km/h (4 Bft) 100,00 %
18.12.2025 23:36 9,7 °C 8,9 °C 5,0 °C 89 % 1013,4 hPa 0,0 l/m² 0 min 0 min 0 W/m² 22,5 km/h (4 Bft) 96,00 %
18.12.2025 23:38 9,7 °C 8,9 °C 5,6 °C 89 % 1013,4 hPa 0,0 l/m² 0 min 0 min 0 W/m² 22,5 km/h (4 Bft) 100,00 %
18.12.2025 23:40 9,8 °C 8,9 °C 5,6 °C 89 % 1013,4 hPa 0,0 l/m² 0 min 0 min 0 W/m² 35,4 km/h (5 Bft) 100,00 %
18.12.2025 23:42 9,8 °C 8,9 °C 5,6 °C 89 % 1013,4 hPa 0,0 l/m² 0 min 0 min 0 W/m² 25,7 km/h (4 Bft) 100,00 %
18.12.2025 23:44 9,8 °C 8,9 °C 5,6 °C 89 % 1013,4 hPa 0,0 l/m² 0 min 0 min 0 W/m² 16,1 km/h (3 Bft) 100,00 %
18.12.2025 23:46 9,8 °C 8,9 °C 5,6 °C 89 % 1013,4 hPa 0,0 l/m² 0 min 0 min 0 W/m² 25,7 km/h (4 Bft) 100,00 %
18.12.2025 23:48 9,8 °C 8,9 °C 5,6 °C 89 % 1013,4 hPa 0,0 l/m² 0 min 0 min 0 W/m² 25,7 km/h (4 Bft) 97,92 %
18.12.2025 23:50 9,8 °C 8,9 °C 5,6 °C 89 % 1013,4 hPa 0,0 l/m² 0 min 0 min 0 W/m² 25,7 km/h (4 Bft) 95,24 %
18.12.2025 23:52 9,8 °C 8,9 °C 5,6 °C 88 % 1013,4 hPa 0,0 l/m² 0 min 0 min 0 W/m² 29,0 km/h (5 Bft) 100,00 %
18.12.2025 23:54 9,8 °C 8,9 °C 5,6 °C 89 % 1013,5 hPa 0,0 l/m² 0 min 0 min 0 W/m² 29,0 km/h (5 Bft) 100,00 %
18.12.2025 23:56 9,8 °C 8,9 °C 5,0 °C 88 % 1013,4 hPa 0,0 l/m² 0 min 0 min 0 W/m² 19,3 km/h (3 Bft) 100,00 %
18.12.2025 23:58 9,8 °C 8,9 °C 5,0 °C 88 % 1013,4 hPa 0,0 l/m² 0 min 0 min 0 W/m² 22,5 km/h (4 Bft) 98,00 %
_ Min-Zeit 05:44 04:56 04:20 13:32 20:07 - - - - 00:26 18:54
Minimum _ 5,4 °C 4,4 °C 1,7 °C 80 % 1013,0 hPa - - - - 0,0 km/h (0 Bft) 47,22 %
_ Max-Zeit 13:34 13:14 12:48 06:00 00:00 00:00 13:08 00:00 13:14 15:00 00:08
Maximum _ 12,4 °C 13,3 °C 7,2 °C 96 % 1019,4 hPa 0,0 l/m² 4 min 0 min 264 W/m² 38,6 km/h
S-SW (5 Bft)
100,00 %
Durchschnitt _ 8,9 °C 8,3 °C 4,6 °C 90 % 1016,4 hPa #0,0 l/m² #2:08 h #0 min. 90 W/m² 16,9 km/h (3 Bft) 96,82 %
© 2025 W. Hausmann